<?xml version="1.0" encoding="utf-8"?>
<gpx xmlns:tc2="http://www.garmin.com/xmlschemas/TrainingCenterDatabase/v2" xmlns:xsi="http://www.w3.org/2001/XMLSchema-instance" xmlns:tp1="http://www.garmin.com/xmlschemas/TrackPointExtension/v1" xmlns="http://www.topografix.com/GPX/1/1" version="1.1" creator="TC2 to GPX11 XSLT stylesheet" xsi:schemaLocation="http://www.topografix.com/GPX/1/1 http://www.topografix.com/GPX/1/1/gpx.xsd http://www.garmin.com/xmlschemas/TrackPointExtension/v1 http://www.garmin.com/xmlschemas/TrackPointExtensionv1.xsd">
<trk>
<name>95_brueggen</name>
<trkseg>
<trkpt lat="51.2229397" lon="6.5860177">
<ele>0.0000000</ele>
<time>2008-10-08T18:51:14Z</time>
</trkpt>
<trkpt lat="51.2226593" lon="6.5860364">
<ele>0.0000000</ele>
<time>2008-10-08T18:51:25Z</time>
</trkpt>
<trkpt lat="51.2228432" lon="6.5851024">
<ele>0.0000000</ele>
<time>2008-10-08T18:51:50Z</time>
</trkpt>
<trkpt lat="51.2222100" lon="6.5848499">
<ele>0.0000000</ele>
<time>2008-10-08T18:52:16Z</time>
</trkpt>
<trkpt lat="51.2217350" lon="6.5845622">
<ele>0.0000000</ele>
<time>2008-10-08T18:52:36Z</time>
</trkpt>
<trkpt lat="51.2214658" lon="6.5847369">
<ele>0.0000000</ele>
<time>2008-10-08T18:52:48Z</time>
</trkpt>
<trkpt lat="51.2212940" lon="6.5852434">
<ele>0.0000000</ele>
<time>2008-10-08T18:53:02Z</time>
</trkpt>
<trkpt lat="51.2208651" lon="6.5868757">
<ele>0.0000000</ele>
<time>2008-10-08T18:53:47Z</time>
</trkpt>
<trkpt lat="51.2207308" lon="6.5869140">
<ele>0.0000000</ele>
<time>2008-10-08T18:53:52Z</time>
</trkpt>
<trkpt lat="51.2197522" lon="6.5871108">
<ele>0.0000000</ele>
<time>2008-10-08T18:54:32Z</time>
</trkpt>
<trkpt lat="51.2189187" lon="6.5873277">
<ele>0.0000000</ele>
<time>2008-10-08T18:55:05Z</time>
</trkpt>
<trkpt lat="51.2178799" lon="6.5879471">
<ele>0.0000000</ele>
<time>2008-10-08T18:55:50Z</time>
</trkpt>
<trkpt lat="51.2175247" lon="6.5881419">
<ele>0.0000000</ele>
<time>2008-10-08T18:56:05Z</time>
</trkpt>
<trkpt lat="51.2173292" lon="6.5877829">
<ele>0.0000000</ele>
<time>2008-10-08T18:56:17Z</time>
</trkpt>
<trkpt lat="51.2168769" lon="6.5870738">
<ele>0.0000000</ele>
<time>2008-10-08T18:56:42Z</time>
</trkpt>
<trkpt lat="51.2164625" lon="6.5865607">
<ele>0.0000000</ele>
<time>2008-10-08T18:57:03Z</time>
</trkpt>
<trkpt lat="51.2159758" lon="6.5856613">
<ele>0.0000000</ele>
<time>2008-10-08T18:57:33Z</time>
</trkpt>
<trkpt lat="51.2155248" lon="6.5841268">
<ele>0.0000000</ele>
<time>2008-10-08T18:58:15Z</time>
</trkpt>
<trkpt lat="51.2152931" lon="6.5832499">
<ele>0.0000000</ele>
<time>2008-10-08T18:58:39Z</time>
</trkpt>
<trkpt lat="51.2149774" lon="6.5827600">
<ele>0.0000000</ele>
<time>2008-10-08T18:58:57Z</time>
</trkpt>
<trkpt lat="51.2144635" lon="6.5824479">
<ele>0.0000000</ele>
<time>2008-10-08T18:59:19Z</time>
</trkpt>
<trkpt lat="51.2140476" lon="6.5817646">
<ele>0.0000000</ele>
<time>2008-10-08T18:59:43Z</time>
</trkpt>
<trkpt lat="51.2137696" lon="6.5813058">
<ele>0.0000000</ele>
<time>2008-10-08T18:59:59Z</time>
</trkpt>
<trkpt lat="51.2140750" lon="6.5798572">
<ele>0.0000000</ele>
<time>2008-10-08T19:00:37Z</time>
</trkpt>
<trkpt lat="51.2143954" lon="6.5785577">
<ele>0.0000000</ele>
<time>2008-10-08T19:01:12Z</time>
</trkpt>
<trkpt lat="51.2148114" lon="6.5772912">
<ele>0.0000000</ele>
<time>2008-10-08T19:01:48Z</time>
</trkpt>
<trkpt lat="51.2150338" lon="6.5766877">
<ele>0.0000000</ele>
<time>2008-10-08T19:02:06Z</time>
</trkpt>
<trkpt lat="51.2146058" lon="6.5763549">
<ele>0.0000000</ele>
<time>2008-10-08T19:02:25Z</time>
</trkpt>
<trkpt lat="51.2139097" lon="6.5759241">
<ele>0.0000000</ele>
<time>2008-10-08T19:02:54Z</time>
</trkpt>
<trkpt lat="51.2132016" lon="6.5754343">
<ele>0.0000000</ele>
<time>2008-10-08T19:03:25Z</time>
</trkpt>
<trkpt lat="51.2125916" lon="6.5752589">
<ele>0.0000000</ele>
<time>2008-10-08T19:03:50Z</time>
</trkpt>
<trkpt lat="51.2120319" lon="6.5748499">
<ele>0.0000000</ele>
<time>2008-10-08T19:04:15Z</time>
</trkpt>
<trkpt lat="51.2113255" lon="6.5739723">
<ele>0.0000000</ele>
<time>2008-10-08T19:04:51Z</time>
</trkpt>
<trkpt lat="51.2114114" lon="6.5735113">
<ele>0.0000000</ele>
<time>2008-10-08T19:05:03Z</time>
</trkpt>
<trkpt lat="51.2114315" lon="6.5707272">
<ele>0.0000000</ele>
<time>2008-10-08T19:06:13Z</time>
</trkpt>
<trkpt lat="51.2114440" lon="6.5683605">
<ele>0.0000000</ele>
<time>2008-10-08T19:07:12Z</time>
</trkpt>
<trkpt lat="51.2115353" lon="6.5614525">
<ele>0.0000000</ele>
<time>2008-10-08T19:10:05Z</time>
</trkpt>
<trkpt lat="51.2115350" lon="6.5612885">
<ele>0.0000000</ele>
<time>2008-10-08T19:10:09Z</time>
</trkpt>
<trkpt lat="51.2104191" lon="6.5548545">
<ele>0.0000000</ele>
<time>2008-10-08T19:12:57Z</time>
</trkpt>
<trkpt lat="51.2103717" lon="6.5545824">
<ele>0.0000000</ele>
<time>2008-10-08T19:13:04Z</time>
</trkpt>
<trkpt lat="51.2101519" lon="6.5543284">
<ele>0.0000000</ele>
<time>2008-10-08T19:13:15Z</time>
</trkpt>
<trkpt lat="51.2104689" lon="6.5535653">
<ele>0.0000000</ele>
<time>2008-10-08T19:13:38Z</time>
</trkpt>
<trkpt lat="51.2115301" lon="6.5511591">
<ele>0.0000000</ele>
<time>2008-10-08T19:14:51Z</time>
</trkpt>
<trkpt lat="51.2122096" lon="6.5488291">
<ele>0.0000000</ele>
<time>2008-10-08T19:15:56Z</time>
</trkpt>
<trkpt lat="51.2126013" lon="6.5475000">
<ele>0.0000000</ele>
<time>2008-10-08T19:16:33Z</time>
</trkpt>
<trkpt lat="51.2129936" lon="6.5475012">
<ele>0.0000000</ele>
<time>2008-10-08T19:16:48Z</time>
</trkpt>
<trkpt lat="51.2171522" lon="6.5431250">
<ele>0.0000000</ele>
<time>2008-10-08T19:20:08Z</time>
</trkpt>
<trkpt lat="51.2195832" lon="6.5371577">
<ele>0.0000000</ele>
<time>2008-10-08T19:23:06Z</time>
</trkpt>
<trkpt lat="51.2221637" lon="6.5307707">
<ele>0.0000000</ele>
<time>2008-10-08T19:26:17Z</time>
</trkpt>
<trkpt lat="51.2257469" lon="6.5221053">
<ele>0.0000000</ele>
<time>2008-10-08T19:30:37Z</time>
</trkpt>
<trkpt lat="51.2212455" lon="6.5172258">
<ele>0.0000000</ele>
<time>2008-10-08T19:34:15Z</time>
</trkpt>
<trkpt lat="51.2211830" lon="6.5169062">
<ele>0.0000000</ele>
<time>2008-10-08T19:34:23Z</time>
</trkpt>
<trkpt lat="51.2208402" lon="6.5136591">
<ele>0.0000000</ele>
<time>2008-10-08T19:35:46Z</time>
</trkpt>
<trkpt lat="51.2207298" lon="6.5134237">
<ele>0.0000000</ele>
<time>2008-10-08T19:35:53Z</time>
</trkpt>
<trkpt lat="51.2196648" lon="6.5110916">
<ele>0.0000000</ele>
<time>2008-10-08T19:37:06Z</time>
</trkpt>
<trkpt lat="51.2195680" lon="6.5105834">
<ele>0.0000000</ele>
<time>2008-10-08T19:37:19Z</time>
</trkpt>
<trkpt lat="51.2196813" lon="6.5100775">
<ele>0.0000000</ele>
<time>2008-10-08T19:37:32Z</time>
</trkpt>
<trkpt lat="51.2197910" lon="6.5099203">
<ele>0.0000000</ele>
<time>2008-10-08T19:37:38Z</time>
</trkpt>
<trkpt lat="51.2204626" lon="6.5094654">
<ele>0.0000000</ele>
<time>2008-10-08T19:38:07Z</time>
</trkpt>
<trkpt lat="51.2207817" lon="6.5091518">
<ele>0.0000000</ele>
<time>2008-10-08T19:38:22Z</time>
</trkpt>
<trkpt lat="51.2221450" lon="6.5088657">
<ele>0.0000000</ele>
<time>2008-10-08T19:39:18Z</time>
</trkpt>
<trkpt lat="51.2226117" lon="6.5063518">
<ele>0.0000000</ele>
<time>2008-10-08T19:40:23Z</time>
</trkpt>
<trkpt lat="51.2226250" lon="6.5045612">
<ele>0.0000000</ele>
<time>2008-10-08T19:41:08Z</time>
</trkpt>
<trkpt lat="51.2227973" lon="6.5025029">
<ele>0.0000000</ele>
<time>2008-10-08T19:42:00Z</time>
</trkpt>
<trkpt lat="51.2226631" lon="6.5019761">
<ele>0.0000000</ele>
<time>2008-10-08T19:42:14Z</time>
</trkpt>
<trkpt lat="51.2226509" lon="6.5010994">
<ele>0.0000000</ele>
<time>2008-10-08T19:42:36Z</time>
</trkpt>
<trkpt lat="51.2226877" lon="6.5007477">
<ele>0.0000000</ele>
<time>2008-10-08T19:42:45Z</time>
</trkpt>
<trkpt lat="51.2231294" lon="6.4982656">
<ele>0.0000000</ele>
<time>2008-10-08T19:43:50Z</time>
</trkpt>
<trkpt lat="51.2231174" lon="6.4978357">
<ele>0.0000000</ele>
<time>2008-10-08T19:44:01Z</time>
</trkpt>
<trkpt lat="51.2228851" lon="6.4970313">
<ele>0.0000000</ele>
<time>2008-10-08T19:44:23Z</time>
</trkpt>
<trkpt lat="51.2229711" lon="6.4966781">
<ele>0.0000000</ele>
<time>2008-10-08T19:44:33Z</time>
</trkpt>
<trkpt lat="51.2232779" lon="6.4958549">
<ele>0.0000000</ele>
<time>2008-10-08T19:44:57Z</time>
</trkpt>
<trkpt lat="51.2238048" lon="6.4951526">
<ele>0.0000000</ele>
<time>2008-10-08T19:45:24Z</time>
</trkpt>
<trkpt lat="51.2243600" lon="6.4944748">
<ele>0.0000000</ele>
<time>2008-10-08T19:45:52Z</time>
</trkpt>
<trkpt lat="51.2249693" lon="6.4932177">
<ele>0.0000000</ele>
<time>2008-10-08T19:46:32Z</time>
</trkpt>
<trkpt lat="51.2252487" lon="6.4928734">
<ele>0.0000000</ele>
<time>2008-10-08T19:46:46Z</time>
</trkpt>
<trkpt lat="51.2262731" lon="6.4927095">
<ele>0.0000000</ele>
<time>2008-10-08T19:47:27Z</time>
</trkpt>
<trkpt lat="51.2268982" lon="6.4927297">
<ele>0.0000000</ele>
<time>2008-10-08T19:47:52Z</time>
</trkpt>
<trkpt lat="51.2274758" lon="6.4918470">
<ele>0.0000000</ele>
<time>2008-10-08T19:48:24Z</time>
</trkpt>
<trkpt lat="51.2279285" lon="6.4910663">
<ele>0.0000000</ele>
<time>2008-10-08T19:48:51Z</time>
</trkpt>
<trkpt lat="51.2287228" lon="6.4908717">
<ele>0.0000000</ele>
<time>2008-10-08T19:49:23Z</time>
</trkpt>
<trkpt lat="51.2294664" lon="6.4905411">
<ele>0.0000000</ele>
<time>2008-10-08T19:49:54Z</time>
</trkpt>
<trkpt lat="51.2300975" lon="6.4899198">
<ele>0.0000000</ele>
<time>2008-10-08T19:50:24Z</time>
</trkpt>
<trkpt lat="51.2303059" lon="6.4897247">
<ele>0.0000000</ele>
<time>2008-10-08T19:50:33Z</time>
</trkpt>
<trkpt lat="51.2299627" lon="6.4888117">
<ele>0.0000000</ele>
<time>2008-10-08T19:51:00Z</time>
</trkpt>
<trkpt lat="51.2307153" lon="6.4884729">
<ele>0.0000000</ele>
<time>2008-10-08T19:51:31Z</time>
</trkpt>
<trkpt lat="51.2310856" lon="6.4883529">
<ele>0.0000000</ele>
<time>2008-10-08T19:51:46Z</time>
</trkpt>
<trkpt lat="51.2324505" lon="6.4854155">
<ele>0.0000000</ele>
<time>2008-10-08T19:53:18Z</time>
</trkpt>
<trkpt lat="51.2320678" lon="6.4862467">
<ele>0.0000000</ele>
<time>2008-10-08T19:53:44Z</time>
</trkpt>
<trkpt lat="51.2331479" lon="6.4838218">
<ele>0.0000000</ele>
<time>2008-10-08T19:54:59Z</time>
</trkpt>
<trkpt lat="51.2340462" lon="6.4819192">
<ele>0.0000000</ele>
<time>2008-10-08T19:55:58Z</time>
</trkpt>
<trkpt lat="51.2348798" lon="6.4800675">
<ele>0.0000000</ele>
<time>2008-10-08T19:56:56Z</time>
</trkpt>
<trkpt lat="51.2354590" lon="6.4789708">
<ele>0.0000000</ele>
<time>2008-10-08T19:57:31Z</time>
</trkpt>
<trkpt lat="51.2360126" lon="6.4783482">
<ele>0.0000000</ele>
<time>2008-10-08T19:57:59Z</time>
</trkpt>
<trkpt lat="51.2358897" lon="6.4779543">
<ele>0.0000000</ele>
<time>2008-10-08T19:58:10Z</time>
</trkpt>
<trkpt lat="51.2353979" lon="6.4775590">
<ele>0.0000000</ele>
<time>2008-10-08T19:58:32Z</time>
</trkpt>
<trkpt lat="51.2348077" lon="6.4774011">
<ele>0.0000000</ele>
<time>2008-10-08T19:58:56Z</time>
</trkpt>
<trkpt lat="51.2344276" lon="6.4773271">
<ele>0.0000000</ele>
<time>2008-10-08T19:59:11Z</time>
</trkpt>
<trkpt lat="51.2336585" lon="6.4776347">
<ele>0.0000000</ele>
<time>2008-10-08T19:59:43Z</time>
</trkpt>
<trkpt lat="51.2327270" lon="6.4780461">
<ele>0.0000000</ele>
<time>2008-10-08T20:00:21Z</time>
</trkpt>
<trkpt lat="51.2326673" lon="6.4778141">
<ele>0.0000000</ele>
<time>2008-10-08T20:00:28Z</time>
</trkpt>
<trkpt lat="51.2327079" lon="6.4771565">
<ele>0.0000000</ele>
<time>2008-10-08T20:00:44Z</time>
</trkpt>
<trkpt lat="51.2331904" lon="6.4758613">
<ele>0.0000000</ele>
<time>2008-10-08T20:01:22Z</time>
</trkpt>
<trkpt lat="51.2336474" lon="6.4743865">
<ele>0.0000000</ele>
<time>2008-10-08T20:02:03Z</time>
</trkpt>
<trkpt lat="51.2337810" lon="6.4740292">
<ele>0.0000000</ele>
<time>2008-10-08T20:02:14Z</time>
</trkpt>
<trkpt lat="51.2337700" lon="6.4737547">
<ele>0.0000000</ele>
<time>2008-10-08T20:02:21Z</time>
</trkpt>
<trkpt lat="51.2335496" lon="6.4731282">
<ele>0.0000000</ele>
<time>2008-10-08T20:02:39Z</time>
</trkpt>
<trkpt lat="51.2334633" lon="6.4727561">
<ele>0.0000000</ele>
<time>2008-10-08T20:02:49Z</time>
</trkpt>
<trkpt lat="51.2339046" lon="6.4716596">
<ele>0.0000000</ele>
<time>2008-10-08T20:03:21Z</time>
</trkpt>
<trkpt lat="51.2338448" lon="6.4707016">
<ele>0.0000000</ele>
<time>2008-10-08T20:03:45Z</time>
</trkpt>
<trkpt lat="51.2338367" lon="6.4698471">
<ele>0.0000000</ele>
<time>2008-10-08T20:04:07Z</time>
</trkpt>
<trkpt lat="51.2339266" lon="6.4691912">
<ele>0.0000000</ele>
<time>2008-10-08T20:04:24Z</time>
</trkpt>
<trkpt lat="51.2341346" lon="6.4691339">
<ele>0.0000000</ele>
<time>2008-10-08T20:04:32Z</time>
</trkpt>
<trkpt lat="51.2343647" lon="6.4692660">
<ele>0.0000000</ele>
<time>2008-10-08T20:04:42Z</time>
</trkpt>
<trkpt lat="51.2345963" lon="6.4689915">
<ele>0.0000000</ele>
<time>2008-10-08T20:04:53Z</time>
</trkpt>
<trkpt lat="51.2348884" lon="6.4687721">
<ele>0.0000000</ele>
<time>2008-10-08T20:05:06Z</time>
</trkpt>
<trkpt lat="51.2351932" lon="6.4687277">
<ele>0.0000000</ele>
<time>2008-10-08T20:05:19Z</time>
</trkpt>
<trkpt lat="51.2355355" lon="6.4683871">
<ele>0.0000000</ele>
<time>2008-10-08T20:05:35Z</time>
</trkpt>
<trkpt lat="51.2356336" lon="6.4678377">
<ele>0.0000000</ele>
<time>2008-10-08T20:05:49Z</time>
</trkpt>
<trkpt lat="51.2358667" lon="6.4671280">
<ele>0.0000000</ele>
<time>2008-10-08T20:06:09Z</time>
</trkpt>
<trkpt lat="51.2360878" lon="6.4666936">
<ele>0.0000000</ele>
<time>2008-10-08T20:06:23Z</time>
</trkpt>
<trkpt lat="51.2364071" lon="6.4663226">
<ele>0.0000000</ele>
<time>2008-10-08T20:06:39Z</time>
</trkpt>
<trkpt lat="51.2366651" lon="6.4658907">
<ele>0.0000000</ele>
<time>2008-10-08T20:06:54Z</time>
</trkpt>
<trkpt lat="51.2367762" lon="6.4650233">
<ele>0.0000000</ele>
<time>2008-10-08T20:07:16Z</time>
</trkpt>
<trkpt lat="51.2366024" lon="6.4643611">
<ele>0.0000000</ele>
<time>2008-10-08T20:07:34Z</time>
</trkpt>
<trkpt lat="51.2365283" lon="6.4638439">
<ele>0.0000000</ele>
<time>2008-10-08T20:07:47Z</time>
</trkpt>
<trkpt lat="51.2366922" lon="6.4632899">
<ele>0.0000000</ele>
<time>2008-10-08T20:08:03Z</time>
</trkpt>
<trkpt lat="51.2370651" lon="6.4626214">
<ele>0.0000000</ele>
<time>2008-10-08T20:08:25Z</time>
</trkpt>
<trkpt lat="51.2375078" lon="6.4621906">
<ele>0.0000000</ele>
<time>2008-10-08T20:08:46Z</time>
</trkpt>
<trkpt lat="51.2381771" lon="6.4617820">
<ele>0.0000000</ele>
<time>2008-10-08T20:09:15Z</time>
</trkpt>
<trkpt lat="51.2386048" lon="6.4614890">
<ele>0.0000000</ele>
<time>2008-10-08T20:09:33Z</time>
</trkpt>
<trkpt lat="51.2391560" lon="6.4605093">
<ele>0.0000000</ele>
<time>2008-10-08T20:10:06Z</time>
</trkpt>
<trkpt lat="51.2397320" lon="6.4598253">
<ele>0.0000000</ele>
<time>2008-10-08T20:10:35Z</time>
</trkpt>
<trkpt lat="51.2403583" lon="6.4590790">
<ele>0.0000000</ele>
<time>2008-10-08T20:11:06Z</time>
</trkpt>
<trkpt lat="51.2417914" lon="6.4571245">
<ele>0.0000000</ele>
<time>2008-10-08T20:12:22Z</time>
</trkpt>
<trkpt lat="51.2423982" lon="6.4564475">
<ele>0.0000000</ele>
<time>2008-10-08T20:12:51Z</time>
</trkpt>
<trkpt lat="51.2431680" lon="6.4553936">
<ele>0.0000000</ele>
<time>2008-10-08T20:13:32Z</time>
</trkpt>
<trkpt lat="51.2432934" lon="6.4552040">
<ele>0.0000000</ele>
<time>2008-10-08T20:13:39Z</time>
</trkpt>
<trkpt lat="51.2436039" lon="6.4534806">
<ele>0.0000000</ele>
<time>2008-10-08T20:14:24Z</time>
</trkpt>
<trkpt lat="51.2435707" lon="6.4527568">
<ele>0.0000000</ele>
<time>2008-10-08T20:14:42Z</time>
</trkpt>
<trkpt lat="51.2435845" lon="6.4523859">
<ele>0.0000000</ele>
<time>2008-10-08T20:14:51Z</time>
</trkpt>
<trkpt lat="51.2441211" lon="6.4511008">
<ele>0.0000000</ele>
<time>2008-10-08T20:15:30Z</time>
</trkpt>
<trkpt lat="51.2450229" lon="6.4491758">
<ele>0.0000000</ele>
<time>2008-10-08T20:16:30Z</time>
</trkpt>
<trkpt lat="51.2456732" lon="6.4476973">
<ele>0.0000000</ele>
<time>2008-10-08T20:17:15Z</time>
</trkpt>
<trkpt lat="51.2459937" lon="6.4471293">
<ele>0.0000000</ele>
<time>2008-10-08T20:17:35Z</time>
</trkpt>
<trkpt lat="51.2465475" lon="6.4466540">
<ele>0.0000000</ele>
<time>2008-10-08T20:18:00Z</time>
</trkpt>
<trkpt lat="51.2470396" lon="6.4458508">
<ele>0.0000000</ele>
<time>2008-10-08T20:18:28Z</time>
</trkpt>
<trkpt lat="51.2473335" lon="6.4451919">
<ele>0.0000000</ele>
<time>2008-10-08T20:18:48Z</time>
</trkpt>
<trkpt lat="51.2474921" lon="6.4439811">
<ele>0.0000000</ele>
<time>2008-10-08T20:19:19Z</time>
</trkpt>
<trkpt lat="51.2452064" lon="6.4419464">
<ele>0.0000000</ele>
<time>2008-10-08T20:21:04Z</time>
</trkpt>
<trkpt lat="51.2433566" lon="6.4402191">
<ele>0.0000000</ele>
<time>2008-10-08T20:22:30Z</time>
</trkpt>
<trkpt lat="51.2433105" lon="6.4368932">
<ele>0.0000000</ele>
<time>2008-10-08T20:23:53Z</time>
</trkpt>
<trkpt lat="51.2431231" lon="6.4359125">
<ele>0.0000000</ele>
<time>2008-10-08T20:24:19Z</time>
</trkpt>
<trkpt lat="51.2430737" lon="6.4347532">
<ele>0.0000000</ele>
<time>2008-10-08T20:24:48Z</time>
</trkpt>
<trkpt lat="51.2430719" lon="6.4334528">
<ele>0.0000000</ele>
<time>2008-10-08T20:25:21Z</time>
</trkpt>
<trkpt lat="51.2431825" lon="6.4322133">
<ele>0.0000000</ele>
<time>2008-10-08T20:25:52Z</time>
</trkpt>
<trkpt lat="51.2430613" lon="6.4308855">
<ele>0.0000000</ele>
<time>2008-10-08T20:26:26Z</time>
</trkpt>
<trkpt lat="51.2429386" lon="6.4287692">
<ele>0.0000000</ele>
<time>2008-10-08T20:27:19Z</time>
</trkpt>
<trkpt lat="51.2403682" lon="6.4215623">
<ele>0.0000000</ele>
<time>2008-10-08T20:30:47Z</time>
</trkpt>
<trkpt lat="51.2397578" lon="6.4188260">
<ele>0.0000000</ele>
<time>2008-10-08T20:31:59Z</time>
</trkpt>
<trkpt lat="51.2395012" lon="6.4182022">
<ele>0.0000000</ele>
<time>2008-10-08T20:32:18Z</time>
</trkpt>
<trkpt lat="51.2392932" lon="6.4176182">
<ele>0.0000000</ele>
<time>2008-10-08T20:32:35Z</time>
</trkpt>
<trkpt lat="51.2390603" lon="6.4168387">
<ele>0.0000000</ele>
<time>2008-10-08T20:32:57Z</time>
</trkpt>
<trkpt lat="51.2378175" lon="6.4147922">
<ele>0.0000000</ele>
<time>2008-10-08T20:34:08Z</time>
</trkpt>
<trkpt lat="51.2372811" lon="6.4136440">
<ele>0.0000000</ele>
<time>2008-10-08T20:34:44Z</time>
</trkpt>
<trkpt lat="51.2371713" lon="6.4133519">
<ele>0.0000000</ele>
<time>2008-10-08T20:34:53Z</time>
</trkpt>
<trkpt lat="51.2368794" lon="6.4131386">
<ele>0.0000000</ele>
<time>2008-10-08T20:35:05Z</time>
</trkpt>
<trkpt lat="51.2357028" lon="6.4115496">
<ele>0.0000000</ele>
<time>2008-10-08T20:36:07Z</time>
</trkpt>
<trkpt lat="51.2355987" lon="6.4112401">
<ele>0.0000000</ele>
<time>2008-10-08T20:36:16Z</time>
</trkpt>
<trkpt lat="51.2348077" lon="6.4108893">
<ele>0.0000000</ele>
<time>2008-10-08T20:36:49Z</time>
</trkpt>
<trkpt lat="51.2337663" lon="6.4105361">
<ele>0.0000000</ele>
<time>2008-10-08T20:37:31Z</time>
</trkpt>
<trkpt lat="51.2334401" lon="6.4105161">
<ele>0.0000000</ele>
<time>2008-10-08T20:37:44Z</time>
</trkpt>
<trkpt lat="51.2331034" lon="6.4101861">
<ele>0.0000000</ele>
<time>2008-10-08T20:38:00Z</time>
</trkpt>
<trkpt lat="51.2327684" lon="6.4100496">
<ele>0.0000000</ele>
<time>2008-10-08T20:38:14Z</time>
</trkpt>
<trkpt lat="51.2324032" lon="6.4094696">
<ele>0.0000000</ele>
<time>2008-10-08T20:38:35Z</time>
</trkpt>
<trkpt lat="51.2318945" lon="6.4084717">
<ele>0.0000000</ele>
<time>2008-10-08T20:39:07Z</time>
</trkpt>
<trkpt lat="51.2313873" lon="6.4073204">
<ele>0.0000000</ele>
<time>2008-10-08T20:39:42Z</time>
</trkpt>
<trkpt lat="51.2306824" lon="6.4062456">
<ele>0.0000000</ele>
<time>2008-10-08T20:40:21Z</time>
</trkpt>
<trkpt lat="51.2302267" lon="6.4054005">
<ele>0.0000000</ele>
<time>2008-10-08T20:40:49Z</time>
</trkpt>
<trkpt lat="51.2297246" lon="6.4039868">
<ele>0.0000000</ele>
<time>2008-10-08T20:41:30Z</time>
</trkpt>
<trkpt lat="51.2293675" lon="6.4031103">
<ele>0.0000000</ele>
<time>2008-10-08T20:41:56Z</time>
</trkpt>
<trkpt lat="51.2288694" lon="6.4022943">
<ele>0.0000000</ele>
<time>2008-10-08T20:42:25Z</time>
</trkpt>
<trkpt lat="51.2287026" lon="6.4019906">
<ele>0.0000000</ele>
<time>2008-10-08T20:42:35Z</time>
</trkpt>
<trkpt lat="51.2286650" lon="6.4017042">
<ele>0.0000000</ele>
<time>2008-10-08T20:42:42Z</time>
</trkpt>
<trkpt lat="51.2283084" lon="6.4011161">
<ele>0.0000000</ele>
<time>2008-10-08T20:43:03Z</time>
</trkpt>
<trkpt lat="51.2277993" lon="6.4006066">
<ele>0.0000000</ele>
<time>2008-10-08T20:43:27Z</time>
</trkpt>
<trkpt lat="51.2271641" lon="6.4003287">
<ele>0.0000000</ele>
<time>2008-10-08T20:43:53Z</time>
</trkpt>
<trkpt lat="51.2261701" lon="6.4001216">
<ele>0.0000000</ele>
<time>2008-10-08T20:44:33Z</time>
</trkpt>
<trkpt lat="51.2258937" lon="6.3999761">
<ele>0.0000000</ele>
<time>2008-10-08T20:44:45Z</time>
</trkpt>
<trkpt lat="51.2255770" lon="6.3999474">
<ele>0.0000000</ele>
<time>2008-10-08T20:44:58Z</time>
</trkpt>
<trkpt lat="51.2253166" lon="6.4000284">
<ele>0.0000000</ele>
<time>2008-10-08T20:45:08Z</time>
</trkpt>
<trkpt lat="51.2247966" lon="6.3995246">
<ele>0.0000000</ele>
<time>2008-10-08T20:45:33Z</time>
</trkpt>
<trkpt lat="51.2242212" lon="6.3989517">
<ele>0.0000000</ele>
<time>2008-10-08T20:46:00Z</time>
</trkpt>
<trkpt lat="51.2238444" lon="6.3987094">
<ele>0.0000000</ele>
<time>2008-10-08T20:46:16Z</time>
</trkpt>
<trkpt lat="51.2247962" lon="6.3968107">
<ele>0.0000000</ele>
<time>2008-10-08T20:47:17Z</time>
</trkpt>
<trkpt lat="51.2259224" lon="6.3944255">
<ele>0.0000000</ele>
<time>2008-10-08T20:48:32Z</time>
</trkpt>
<trkpt lat="51.2270051" lon="6.3923015">
<ele>0.0000000</ele>
<time>2008-10-08T20:49:40Z</time>
</trkpt>
<trkpt lat="51.2287140" lon="6.3888485">
<ele>0.0000000</ele>
<time>2008-10-08T20:51:31Z</time>
</trkpt>
<trkpt lat="51.2289068" lon="6.3889324">
<ele>0.0000000</ele>
<time>2008-10-08T20:51:39Z</time>
</trkpt>
<trkpt lat="51.2293881" lon="6.3894545">
<ele>0.0000000</ele>
<time>2008-10-08T20:52:02Z</time>
</trkpt>
<trkpt lat="51.2299338" lon="6.3903055">
<ele>0.0000000</ele>
<time>2008-10-08T20:52:33Z</time>
</trkpt>
<trkpt lat="51.2303856" lon="6.3912709">
<ele>0.0000000</ele>
<time>2008-10-08T20:53:03Z</time>
</trkpt>
<trkpt lat="51.2309173" lon="6.3922511">
<ele>0.0000000</ele>
<time>2008-10-08T20:53:35Z</time>
</trkpt>
<trkpt lat="51.2313076" lon="6.3927227">
<ele>0.0000000</ele>
<time>2008-10-08T20:53:55Z</time>
</trkpt>
<trkpt lat="51.2327089" lon="6.3923396">
<ele>0.0000000</ele>
<time>2008-10-08T20:54:52Z</time>
</trkpt>
<trkpt lat="51.2330564" lon="6.3920328">
<ele>0.0000000</ele>
<time>2008-10-08T20:55:08Z</time>
</trkpt>
<trkpt lat="51.2338301" lon="6.3905128">
<ele>0.0000000</ele>
<time>2008-10-08T20:55:57Z</time>
</trkpt>
<trkpt lat="51.2343358" lon="6.3897236">
<ele>0.0000000</ele>
<time>2008-10-08T20:56:25Z</time>
</trkpt>
<trkpt lat="51.2347410" lon="6.3893813">
<ele>0.0000000</ele>
<time>2008-10-08T20:56:43Z</time>
</trkpt>
<trkpt lat="51.2353159" lon="6.3893620">
<ele>0.0000000</ele>
<time>2008-10-08T20:57:06Z</time>
</trkpt>
<trkpt lat="51.2362382" lon="6.3894471">
<ele>0.0000000</ele>
<time>2008-10-08T20:57:43Z</time>
</trkpt>
<trkpt lat="51.2362050" lon="6.3885729">
<ele>0.0000000</ele>
<time>2008-10-08T20:58:05Z</time>
</trkpt>
<trkpt lat="51.2364700" lon="6.3866503">
<ele>0.0000000</ele>
<time>2008-10-08T20:58:55Z</time>
</trkpt>
<trkpt lat="51.2368190" lon="6.3853112">
<ele>0.0000000</ele>
<time>2008-10-08T20:59:31Z</time>
</trkpt>
<trkpt lat="51.2371424" lon="6.3842549">
<ele>0.0000000</ele>
<time>2008-10-08T21:00:01Z</time>
</trkpt>
<trkpt lat="51.2373191" lon="6.3820181">
<ele>0.0000000</ele>
<time>2008-10-08T21:00:57Z</time>
</trkpt>
<trkpt lat="51.2374119" lon="6.3801372">
<ele>0.0000000</ele>
<time>2008-10-08T21:01:44Z</time>
</trkpt>
<trkpt lat="51.2377988" lon="6.3781775">
<ele>0.0000000</ele>
<time>2008-10-08T21:02:36Z</time>
</trkpt>
<trkpt lat="51.2375627" lon="6.3776709">
<ele>0.0000000</ele>
<time>2008-10-08T21:02:52Z</time>
</trkpt>
<trkpt lat="51.2373387" lon="6.3769192">
<ele>0.0000000</ele>
<time>2008-10-08T21:03:13Z</time>
</trkpt>
<trkpt lat="51.2370087" lon="6.3762610">
<ele>0.0000000</ele>
<time>2008-10-08T21:03:34Z</time>
</trkpt>
<trkpt lat="51.2365249" lon="6.3753760">
<ele>0.0000000</ele>
<time>2008-10-08T21:04:03Z</time>
</trkpt>
<trkpt lat="51.2357107" lon="6.3735710">
<ele>0.0000000</ele>
<time>2008-10-08T21:04:59Z</time>
</trkpt>
<trkpt lat="51.2350859" lon="6.3720687">
<ele>0.0000000</ele>
<time>2008-10-08T21:05:44Z</time>
</trkpt>
<trkpt lat="51.2352239" lon="6.3717663">
<ele>0.0000000</ele>
<time>2008-10-08T21:05:53Z</time>
</trkpt>
<trkpt lat="51.2351394" lon="6.3706544">
<ele>0.0000000</ele>
<time>2008-10-08T21:06:22Z</time>
</trkpt>
<trkpt lat="51.2351163" lon="6.3695469">
<ele>0.0000000</ele>
<time>2008-10-08T21:06:49Z</time>
</trkpt>
<trkpt lat="51.2349984" lon="6.3693966">
<ele>0.0000000</ele>
<time>2008-10-08T21:06:55Z</time>
</trkpt>
<trkpt lat="51.2333144" lon="6.3687256">
<ele>0.0000000</ele>
<time>2008-10-08T21:08:05Z</time>
</trkpt>
<trkpt lat="51.2306783" lon="6.3694018">
<ele>0.0000000</ele>
<time>2008-10-08T21:09:52Z</time>
</trkpt>
<trkpt lat="51.2294781" lon="6.3642093">
<ele>0.0000000</ele>
<time>2008-10-08T21:12:10Z</time>
</trkpt>
<trkpt lat="51.2292270" lon="6.3628478">
<ele>0.0000000</ele>
<time>2008-10-08T21:12:46Z</time>
</trkpt>
<trkpt lat="51.2290024" lon="6.3613971">
<ele>0.0000000</ele>
<time>2008-10-08T21:13:24Z</time>
</trkpt>
<trkpt lat="51.2290843" lon="6.3611003">
<ele>0.0000000</ele>
<time>2008-10-08T21:13:32Z</time>
</trkpt>
<trkpt lat="51.2307872" lon="6.3594756">
<ele>0.0000000</ele>
<time>2008-10-08T21:14:51Z</time>
</trkpt>
<trkpt lat="51.2325868" lon="6.3580441">
<ele>0.0000000</ele>
<time>2008-10-08T21:16:12Z</time>
</trkpt>
<trkpt lat="51.2338365" lon="6.3569350">
<ele>0.0000000</ele>
<time>2008-10-08T21:17:09Z</time>
</trkpt>
<trkpt lat="51.2359121" lon="6.3546458">
<ele>0.0000000</ele>
<time>2008-10-08T21:18:50Z</time>
</trkpt>
<trkpt lat="51.2336425" lon="6.3476480">
<ele>0.0000000</ele>
<time>2008-10-08T21:22:07Z</time>
</trkpt>
<trkpt lat="51.2328087" lon="6.3433428">
<ele>0.0000000</ele>
<time>2008-10-08T21:24:00Z</time>
</trkpt>
<trkpt lat="51.2321064" lon="6.3420714">
<ele>0.0000000</ele>
<time>2008-10-08T21:24:43Z</time>
</trkpt>
<trkpt lat="51.2311905" lon="6.3391738">
<ele>0.0000000</ele>
<time>2008-10-08T21:26:04Z</time>
</trkpt>
<trkpt lat="51.2315537" lon="6.3329382">
<ele>0.0000000</ele>
<time>2008-10-08T21:28:41Z</time>
</trkpt>
<trkpt lat="51.2316586" lon="6.3313288">
<ele>0.0000000</ele>
<time>2008-10-08T21:29:22Z</time>
</trkpt>
<trkpt lat="51.2318352" lon="6.3301356">
<ele>0.0000000</ele>
<time>2008-10-08T21:29:52Z</time>
</trkpt>
<trkpt lat="51.2322031" lon="6.3291617">
<ele>0.0000000</ele>
<time>2008-10-08T21:30:21Z</time>
</trkpt>
<trkpt lat="51.2323923" lon="6.3284903">
<ele>0.0000000</ele>
<time>2008-10-08T21:30:39Z</time>
</trkpt>
<trkpt lat="51.2332633" lon="6.3259410">
<ele>0.0000000</ele>
<time>2008-10-08T21:31:52Z</time>
</trkpt>
<trkpt lat="51.2338044" lon="6.3240723">
<ele>0.0000000</ele>
<time>2008-10-08T21:32:44Z</time>
</trkpt>
<trkpt lat="51.2343592" lon="6.3222782">
<ele>0.0000000</ele>
<time>2008-10-08T21:33:34Z</time>
</trkpt>
<trkpt lat="51.2348658" lon="6.3207283">
<ele>0.0000000</ele>
<time>2008-10-08T21:34:18Z</time>
</trkpt>
<trkpt lat="51.2353435" lon="6.3193015">
<ele>0.0000000</ele>
<time>2008-10-08T21:34:58Z</time>
</trkpt>
<trkpt lat="51.2355425" lon="6.3176547">
<ele>0.0000000</ele>
<time>2008-10-08T21:35:40Z</time>
</trkpt>
<trkpt lat="51.2357661" lon="6.3171260">
<ele>0.0000000</ele>
<time>2008-10-08T21:35:56Z</time>
</trkpt>
<trkpt lat="51.2361077" lon="6.3165788">
<ele>0.0000000</ele>
<time>2008-10-08T21:36:16Z</time>
</trkpt>
<trkpt lat="51.2365504" lon="6.3161711">
<ele>0.0000000</ele>
<time>2008-10-08T21:36:36Z</time>
</trkpt>
<trkpt lat="51.2371985" lon="6.3151907">
<ele>0.0000000</ele>
<time>2008-10-08T21:37:12Z</time>
</trkpt>
<trkpt lat="51.2381578" lon="6.3139201">
<ele>0.0000000</ele>
<time>2008-10-08T21:38:02Z</time>
</trkpt>
<trkpt lat="51.2390100" lon="6.3128228">
<ele>0.0000000</ele>
<time>2008-10-08T21:38:46Z</time>
</trkpt>
<trkpt lat="51.2402540" lon="6.3114217">
<ele>0.0000000</ele>
<time>2008-10-08T21:39:46Z</time>
</trkpt>
<trkpt lat="51.2417621" lon="6.3095712">
<ele>0.0000000</ele>
<time>2008-10-08T21:41:03Z</time>
</trkpt>
<trkpt lat="51.2426474" lon="6.3082205">
<ele>0.0000000</ele>
<time>2008-10-08T21:41:52Z</time>
</trkpt>
<trkpt lat="51.2431674" lon="6.3077044">
<ele>0.0000000</ele>
<time>2008-10-08T21:42:16Z</time>
</trkpt>
<trkpt lat="51.2439445" lon="6.3071837">
<ele>0.0000000</ele>
<time>2008-10-08T21:42:50Z</time>
</trkpt>
<trkpt lat="51.2445600" lon="6.3068832">
<ele>0.0000000</ele>
<time>2008-10-08T21:43:16Z</time>
</trkpt>
<trkpt lat="51.2459014" lon="6.3067763">
<ele>0.0000000</ele>
<time>2008-10-08T21:44:09Z</time>
</trkpt>
<trkpt lat="51.2470048" lon="6.3067536">
<ele>0.0000000</ele>
<time>2008-10-08T21:44:54Z</time>
</trkpt>
<trkpt lat="51.2490261" lon="6.3066682">
<ele>0.0000000</ele>
<time>2008-10-08T21:46:14Z</time>
</trkpt>
<trkpt lat="51.2504793" lon="6.3068369">
<ele>0.0000000</ele>
<time>2008-10-08T21:47:13Z</time>
</trkpt>
<trkpt lat="51.2506966" lon="6.3061057">
<ele>0.0000000</ele>
<time>2008-10-08T21:47:33Z</time>
</trkpt>
<trkpt lat="51.2508278" lon="6.3057801">
<ele>0.0000000</ele>
<time>2008-10-08T21:47:43Z</time>
</trkpt>
<trkpt lat="51.2508507" lon="6.3049163">
<ele>0.0000000</ele>
<time>2008-10-08T21:48:04Z</time>
</trkpt>
<trkpt lat="51.2508635" lon="6.3042224">
<ele>0.0000000</ele>
<time>2008-10-08T21:48:22Z</time>
</trkpt>
<trkpt lat="51.2511395" lon="6.3033570">
<ele>0.0000000</ele>
<time>2008-10-08T21:48:46Z</time>
</trkpt>
<trkpt lat="51.2513651" lon="6.3027832">
<ele>0.0000000</ele>
<time>2008-10-08T21:49:03Z</time>
</trkpt>
<trkpt lat="51.2514948" lon="6.3012093">
<ele>0.0000000</ele>
<time>2008-10-08T21:49:43Z</time>
</trkpt>
<trkpt lat="51.2516385" lon="6.2999821">
<ele>0.0000000</ele>
<time>2008-10-08T21:50:14Z</time>
</trkpt>
<trkpt lat="51.2517671" lon="6.2986532">
<ele>0.0000000</ele>
<time>2008-10-08T21:50:48Z</time>
</trkpt>
<trkpt lat="51.2518373" lon="6.2975167">
<ele>0.0000000</ele>
<time>2008-10-08T21:51:16Z</time>
</trkpt>
<trkpt lat="51.2519439" lon="6.2962101">
<ele>0.0000000</ele>
<time>2008-10-08T21:51:50Z</time>
</trkpt>
<trkpt lat="51.2519316" lon="6.2958096">
<ele>0.0000000</ele>
<time>2008-10-08T21:52:00Z</time>
</trkpt>
<trkpt lat="51.2520021" lon="6.2949954">
<ele>0.0000000</ele>
<time>2008-10-08T21:52:20Z</time>
</trkpt>
<trkpt lat="51.2522538" lon="6.2942432">
<ele>0.0000000</ele>
<time>2008-10-08T21:52:42Z</time>
</trkpt>
<trkpt lat="51.2526739" lon="6.2931144">
<ele>0.0000000</ele>
<time>2008-10-08T21:53:14Z</time>
</trkpt>
<trkpt lat="51.2530581" lon="6.2922281">
<ele>0.0000000</ele>
<time>2008-10-08T21:53:41Z</time>
</trkpt>
<trkpt lat="51.2533931" lon="6.2912988">
<ele>0.0000000</ele>
<time>2008-10-08T21:54:08Z</time>
</trkpt>
<trkpt lat="51.2538977" lon="6.2904706">
<ele>0.0000000</ele>
<time>2008-10-08T21:54:37Z</time>
</trkpt>
<trkpt lat="51.2545330" lon="6.2893517">
<ele>0.0000000</ele>
<time>2008-10-08T21:55:15Z</time>
</trkpt>
<trkpt lat="51.2548337" lon="6.2882167">
<ele>0.0000000</ele>
<time>2008-10-08T21:55:46Z</time>
</trkpt>
<trkpt lat="51.2553022" lon="6.2867142">
<ele>0.0000000</ele>
<time>2008-10-08T21:56:28Z</time>
</trkpt>
<trkpt lat="51.2555681" lon="6.2855373">
<ele>0.0000000</ele>
<time>2008-10-08T21:56:59Z</time>
</trkpt>
<trkpt lat="51.2556726" lon="6.2841718">
<ele>0.0000000</ele>
<time>2008-10-08T21:57:34Z</time>
</trkpt>
<trkpt lat="51.2554788" lon="6.2826690">
<ele>0.0000000</ele>
<time>2008-10-08T21:58:12Z</time>
</trkpt>
<trkpt lat="51.2552693" lon="6.2815016">
<ele>0.0000000</ele>
<time>2008-10-08T21:58:43Z</time>
</trkpt>
<trkpt lat="51.2549452" lon="6.2800892">
<ele>0.0000000</ele>
<time>2008-10-08T21:59:20Z</time>
</trkpt>
<trkpt lat="51.2544977" lon="6.2789733">
<ele>0.0000000</ele>
<time>2008-10-08T21:59:54Z</time>
</trkpt>
<trkpt lat="51.2545205" lon="6.2779543">
<ele>0.0000000</ele>
<time>2008-10-08T22:00:19Z</time>
</trkpt>
<trkpt lat="51.2545788" lon="6.2766827">
<ele>0.0000000</ele>
<time>2008-10-08T22:00:51Z</time>
</trkpt>
<trkpt lat="51.2546617" lon="6.2759313">
<ele>0.0000000</ele>
<time>2008-10-08T22:01:10Z</time>
</trkpt>
<trkpt lat="51.2547348" lon="6.2755251">
<ele>0.0000000</ele>
<time>2008-10-08T22:01:21Z</time>
</trkpt>
<trkpt lat="51.2547250" lon="6.2747110">
<ele>0.0000000</ele>
<time>2008-10-08T22:01:41Z</time>
</trkpt>
<trkpt lat="51.2541376" lon="6.2718096">
<ele>0.0000000</ele>
<time>2008-10-08T22:02:58Z</time>
</trkpt>
<trkpt lat="51.2537742" lon="6.2702651">
<ele>0.0000000</ele>
<time>2008-10-08T22:03:39Z</time>
</trkpt>
<trkpt lat="51.2534824" lon="6.2694837">
<ele>0.0000000</ele>
<time>2008-10-08T22:04:02Z</time>
</trkpt>
<trkpt lat="51.2530338" lon="6.2684547">
<ele>0.0000000</ele>
<time>2008-10-08T22:04:33Z</time>
</trkpt>
<trkpt lat="51.2519487" lon="6.2667301">
<ele>0.0000000</ele>
<time>2008-10-08T22:05:34Z</time>
</trkpt>
<trkpt lat="51.2515040" lon="6.2659661">
<ele>0.0000000</ele>
<time>2008-10-08T22:06:01Z</time>
</trkpt>
<trkpt lat="51.2513121" lon="6.2657758">
<ele>0.0000000</ele>
<time>2008-10-08T22:06:10Z</time>
</trkpt>
<trkpt lat="51.2508795" lon="6.2658724">
<ele>0.0000000</ele>
<time>2008-10-08T22:06:27Z</time>
</trkpt>
<trkpt lat="51.2503885" lon="6.2660095">
<ele>0.0000000</ele>
<time>2008-10-08T22:06:47Z</time>
</trkpt>
<trkpt lat="51.2499455" lon="6.2659928">
<ele>0.0000000</ele>
<time>2008-10-08T22:07:05Z</time>
</trkpt>
<trkpt lat="51.2480075" lon="6.2650203">
<ele>0.0000000</ele>
<time>2008-10-08T22:08:26Z</time>
</trkpt>
<trkpt lat="51.2437520" lon="6.2651250">
<ele>0.0000000</ele>
<time>2008-10-08T22:11:16Z</time>
</trkpt>
<trkpt lat="51.2415822" lon="6.2655209">
<ele>0.0000000</ele>
<time>2008-10-08T22:12:44Z</time>
</trkpt>
<trkpt lat="51.2416155" lon="6.2645287">
<ele>0.0000000</ele>
<time>2008-10-08T22:13:09Z</time>
</trkpt>
<trkpt lat="51.2415489" lon="6.2626154">
<ele>0.0000000</ele>
<time>2008-10-08T22:13:57Z</time>
</trkpt>
<trkpt lat="51.2412210" lon="6.2599230">
<ele>0.0000000</ele>
<time>2008-10-08T22:15:06Z</time>
</trkpt>
<trkpt lat="51.2411823" lon="6.2593264">
<ele>0.0000000</ele>
<time>2008-10-08T22:15:21Z</time>
</trkpt>
<trkpt lat="51.2413472" lon="6.2584247">
<ele>0.0000000</ele>
<time>2008-10-08T22:15:44Z</time>
</trkpt>
<trkpt lat="51.2416445" lon="6.2568657">
<ele>0.0000000</ele>
<time>2008-10-08T22:16:25Z</time>
</trkpt>
<trkpt lat="51.2418694" lon="6.2559867">
<ele>0.0000000</ele>
<time>2008-10-08T22:16:49Z</time>
</trkpt>
<trkpt lat="51.2421546" lon="6.2552406">
<ele>0.0000000</ele>
<time>2008-10-08T22:17:11Z</time>
</trkpt>
<trkpt lat="51.2424516" lon="6.2549157">
<ele>0.0000000</ele>
<time>2008-10-08T22:17:25Z</time>
</trkpt>
<trkpt lat="51.2425229" lon="6.2546668">
<ele>0.0000000</ele>
<time>2008-10-08T22:17:32Z</time>
</trkpt>
<trkpt lat="51.2424140" lon="6.2538441">
<ele>0.0000000</ele>
<time>2008-10-08T22:17:53Z</time>
</trkpt>
<trkpt lat="51.2422927" lon="6.2526965">
<ele>0.0000000</ele>
<time>2008-10-08T22:18:22Z</time>
</trkpt>
<trkpt lat="51.2423607" lon="6.2520633">
<ele>0.0000000</ele>
<time>2008-10-08T22:18:38Z</time>
</trkpt>
<trkpt lat="51.2424639" lon="6.2510443">
<ele>0.0000000</ele>
<time>2008-10-08T22:19:04Z</time>
</trkpt>
<trkpt lat="51.2411467" lon="6.2453952">
<ele>0.0000000</ele>
<time>2008-10-08T22:21:35Z</time>
</trkpt>
<trkpt lat="51.2405526" lon="6.2432603">
<ele>0.0000000</ele>
<time>2008-10-08T22:22:34Z</time>
</trkpt>
<trkpt lat="51.2409702" lon="6.2421841">
<ele>0.0000000</ele>
<time>2008-10-08T22:23:06Z</time>
</trkpt>
<trkpt lat="51.2414600" lon="6.2409151">
<ele>0.0000000</ele>
<time>2008-10-08T22:23:43Z</time>
</trkpt>
<trkpt lat="51.2419717" lon="6.2401610">
<ele>0.0000000</ele>
<time>2008-10-08T22:24:11Z</time>
</trkpt>
<trkpt lat="51.2422125" lon="6.2397382">
<ele>0.0000000</ele>
<time>2008-10-08T22:24:25Z</time>
</trkpt>
<trkpt lat="51.2431846" lon="6.2390208">
<ele>0.0000000</ele>
<time>2008-10-08T22:25:08Z</time>
</trkpt>
<trkpt lat="51.2436422" lon="6.2386005">
<ele>0.0000000</ele>
<time>2008-10-08T22:25:29Z</time>
</trkpt>
<trkpt lat="51.2446586" lon="6.2369514">
<ele>0.0000000</ele>
<time>2008-10-08T22:26:27Z</time>
</trkpt>
<trkpt lat="51.2452063" lon="6.2358323">
<ele>0.0000000</ele>
<time>2008-10-08T22:27:03Z</time>
</trkpt>
<trkpt lat="51.2456811" lon="6.2347661">
<ele>0.0000000</ele>
<time>2008-10-08T22:27:35Z</time>
</trkpt>
<trkpt lat="51.2459614" lon="6.2341920">
<ele>0.0000000</ele>
<time>2008-10-08T22:27:54Z</time>
</trkpt>
<trkpt lat="51.2461961" lon="6.2328606">
<ele>0.0000000</ele>
<time>2008-10-08T22:28:28Z</time>
</trkpt>
<trkpt lat="51.2465356" lon="6.2301046">
<ele>0.0000000</ele>
<time>2008-10-08T22:29:39Z</time>
</trkpt>
<trkpt lat="51.2467930" lon="6.2273325">
<ele>0.0000000</ele>
<time>2008-10-08T22:30:49Z</time>
</trkpt>
<trkpt lat="51.2470296" lon="6.2252625">
<ele>0.0000000</ele>
<time>2008-10-08T22:31:42Z</time>
</trkpt>
<trkpt lat="51.2472282" lon="6.2238461">
<ele>0.0000000</ele>
<time>2008-10-08T22:32:18Z</time>
</trkpt>
<trkpt lat="51.2472651" lon="6.2232519">
<ele>0.0000000</ele>
<time>2008-10-08T22:32:33Z</time>
</trkpt>
<trkpt lat="51.2472663" lon="6.2224048">
<ele>0.0000000</ele>
<time>2008-10-08T22:32:54Z</time>
</trkpt>
<trkpt lat="51.2470500" lon="6.2216137">
<ele>0.0000000</ele>
<time>2008-10-08T22:33:16Z</time>
</trkpt>
<trkpt lat="51.2469886" lon="6.2206050">
<ele>0.0000000</ele>
<time>2008-10-08T22:33:41Z</time>
</trkpt>
<trkpt lat="51.2466187" lon="6.2192747">
<ele>0.0000000</ele>
<time>2008-10-08T22:34:18Z</time>
</trkpt>
<trkpt lat="51.2461310" lon="6.2181280">
<ele>0.0000000</ele>
<time>2008-10-08T22:34:52Z</time>
</trkpt>
<trkpt lat="51.2455965" lon="6.2166358">
<ele>0.0000000</ele>
<time>2008-10-08T22:35:36Z</time>
</trkpt>
<trkpt lat="51.2444291" lon="6.2139898">
<ele>0.0000000</ele>
<time>2008-10-08T22:36:57Z</time>
</trkpt>
<trkpt lat="51.2442070" lon="6.2133387">
<ele>0.0000000</ele>
<time>2008-10-08T22:37:15Z</time>
</trkpt>
<trkpt lat="51.2431805" lon="6.2127418">
<ele>0.0000000</ele>
<time>2008-10-08T22:37:59Z</time>
</trkpt>
<trkpt lat="51.2428873" lon="6.2121413">
<ele>0.0000000</ele>
<time>2008-10-08T22:38:18Z</time>
</trkpt>
<trkpt lat="51.2428259" lon="6.2117536">
<ele>0.0000000</ele>
<time>2008-10-08T22:38:28Z</time>
</trkpt>
<trkpt lat="51.2430430" lon="6.2105479">
<ele>0.0000000</ele>
<time>2008-10-08T22:39:00Z</time>
</trkpt>
<trkpt lat="51.2431881" lon="6.2097306">
<ele>0.0000000</ele>
<time>2008-10-08T22:39:21Z</time>
</trkpt>
<trkpt lat="51.2429456" lon="6.2095777">
<ele>0.0000000</ele>
<time>2008-10-08T22:39:31Z</time>
</trkpt>
<trkpt lat="51.2422134" lon="6.2093693">
<ele>0.0000000</ele>
<time>2008-10-08T22:40:01Z</time>
</trkpt>
<trkpt lat="51.2415517" lon="6.2086887">
<ele>0.0000000</ele>
<time>2008-10-08T22:40:33Z</time>
</trkpt>
<trkpt lat="51.2410616" lon="6.2083397">
<ele>0.0000000</ele>
<time>2008-10-08T22:40:54Z</time>
</trkpt>
<trkpt lat="51.2407185" lon="6.2085173">
<ele>0.0000000</ele>
<time>2008-10-08T22:41:08Z</time>
</trkpt>
<trkpt lat="51.2399839" lon="6.2091669">
<ele>0.0000000</ele>
<time>2008-10-08T22:41:42Z</time>
</trkpt>
<trkpt lat="51.2395575" lon="6.2093642">
<ele>0.0000000</ele>
<time>2008-10-08T22:42:00Z</time>
</trkpt>
<trkpt lat="51.2385693" lon="6.2088023">
<ele>0.0000000</ele>
<time>2008-10-08T22:42:42Z</time>
</trkpt>
<trkpt lat="51.2378461" lon="6.2085524">
<ele>0.0000000</ele>
<time>2008-10-08T22:43:11Z</time>
</trkpt>
<trkpt lat="51.2369500" lon="6.2084399">
<ele>0.0000000</ele>
<time>2008-10-08T22:43:47Z</time>
</trkpt>
<trkpt lat="51.2347403" lon="6.2080239">
<ele>0.0000000</ele>
<time>2008-10-08T22:45:16Z</time>
</trkpt>
<trkpt lat="51.2344348" lon="6.2078506">
<ele>0.0000000</ele>
<time>2008-10-08T22:45:29Z</time>
</trkpt>
<trkpt lat="51.2339230" lon="6.2079899">
<ele>0.0000000</ele>
<time>2008-10-08T22:45:50Z</time>
</trkpt>
<trkpt lat="51.2334364" lon="6.2081490">
<ele>0.0000000</ele>
<time>2008-10-08T22:46:10Z</time>
</trkpt>
<trkpt lat="51.2332781" lon="6.2079754">
<ele>0.0000000</ele>
<time>2008-10-08T22:46:18Z</time>
</trkpt>
<trkpt lat="51.2329979" lon="6.2073764">
<ele>0.0000000</ele>
<time>2008-10-08T22:46:37Z</time>
</trkpt>
<trkpt lat="51.2327303" lon="6.2067202">
<ele>0.0000000</ele>
<time>2008-10-08T22:46:56Z</time>
</trkpt>
<trkpt lat="51.2324409" lon="6.2063003">
<ele>0.0000000</ele>
<time>2008-10-08T22:47:12Z</time>
</trkpt>
<trkpt lat="51.2320691" lon="6.2061343">
<ele>0.0000000</ele>
<time>2008-10-08T22:47:27Z</time>
</trkpt>
<trkpt lat="51.2315299" lon="6.2062767">
<ele>0.0000000</ele>
<time>2008-10-08T22:47:49Z</time>
</trkpt>
<trkpt lat="51.2310262" lon="6.2065891">
<ele>0.0000000</ele>
<time>2008-10-08T22:48:11Z</time>
</trkpt>
<trkpt lat="51.2304121" lon="6.2071116">
<ele>0.0000000</ele>
<time>2008-10-08T22:48:39Z</time>
</trkpt>
<trkpt lat="51.2298628" lon="6.2077476">
<ele>0.0000000</ele>
<time>2008-10-08T22:49:06Z</time>
</trkpt>
<trkpt lat="51.2294727" lon="6.2082122">
<ele>0.0000000</ele>
<time>2008-10-08T22:49:25Z</time>
</trkpt>
<trkpt lat="51.2293416" lon="6.2086183">
<ele>0.0000000</ele>
<time>2008-10-08T22:49:37Z</time>
</trkpt>
<trkpt lat="51.2292463" lon="6.2089083">
<ele>0.0000000</ele>
<time>2008-10-08T22:49:45Z</time>
</trkpt>
<trkpt lat="51.2290771" lon="6.2091596">
<ele>0.0000000</ele>
<time>2008-10-08T22:49:54Z</time>
</trkpt>
<trkpt lat="51.2284402" lon="6.2093729">
<ele>0.0000000</ele>
<time>2008-10-08T22:50:20Z</time>
</trkpt>
<trkpt lat="51.2276896" lon="6.2093562">
<ele>0.0000000</ele>
<time>2008-10-08T22:50:50Z</time>
</trkpt>
<trkpt lat="51.2273181" lon="6.2094544">
<ele>0.0000000</ele>
<time>2008-10-08T22:51:05Z</time>
</trkpt>
<trkpt lat="51.2268520" lon="6.2098037">
<ele>0.0000000</ele>
<time>2008-10-08T22:51:26Z</time>
</trkpt>
<trkpt lat="51.2264551" lon="6.2098250">
<ele>0.0000000</ele>
<time>2008-10-08T22:51:42Z</time>
</trkpt>
<trkpt lat="51.2263565" lon="6.2093824">
<ele>0.0000000</ele>
<time>2008-10-08T22:51:54Z</time>
</trkpt>
<trkpt lat="51.2261970" lon="6.2085974">
<ele>0.0000000</ele>
<time>2008-10-08T22:52:14Z</time>
</trkpt>
<trkpt lat="51.2259935" lon="6.2086368">
<ele>0.0000000</ele>
<time>2008-10-08T22:52:23Z</time>
</trkpt>
<trkpt lat="51.2253353" lon="6.2091002">
<ele>0.0000000</ele>
<time>2008-10-08T22:52:51Z</time>
</trkpt>
<trkpt lat="51.2241690" lon="6.2096453">
<ele>0.0000000</ele>
<time>2008-10-08T22:53:40Z</time>
</trkpt>
<trkpt lat="51.2233893" lon="6.2098983">
<ele>0.0000000</ele>
<time>2008-10-08T22:54:12Z</time>
</trkpt>
<trkpt lat="51.2224075" lon="6.2103242">
<ele>0.0000000</ele>
<time>2008-10-08T22:54:53Z</time>
</trkpt>
<trkpt lat="51.2211392" lon="6.2109368">
<ele>0.0000000</ele>
<time>2008-10-08T22:55:46Z</time>
</trkpt>
<trkpt lat="51.2195721" lon="6.2117593">
<ele>0.0000000</ele>
<time>2008-10-08T22:56:52Z</time>
</trkpt>
<trkpt lat="51.2190223" lon="6.2118548">
<ele>0.0000000</ele>
<time>2008-10-08T22:57:14Z</time>
</trkpt>
<trkpt lat="51.2177347" lon="6.2120485">
<ele>0.0000000</ele>
<time>2008-10-08T22:58:06Z</time>
</trkpt>
<trkpt lat="51.2176513" lon="6.2120299">
<ele>0.0000000</ele>
<time>2008-10-08T22:58:09Z</time>
</trkpt>
<trkpt lat="51.2174364" lon="6.2118605">
<ele>0.0000000</ele>
<time>2008-10-08T22:58:19Z</time>
</trkpt>
<trkpt lat="51.2168620" lon="6.2122925">
<ele>0.0000000</ele>
<time>2008-10-08T22:58:44Z</time>
</trkpt>
<trkpt lat="51.2160224" lon="6.2126862">
<ele>0.0000000</ele>
<time>2008-10-08T22:59:19Z</time>
</trkpt>
<trkpt lat="51.2151378" lon="6.2129763">
<ele>0.0000000</ele>
<time>2008-10-08T22:59:55Z</time>
</trkpt>
<trkpt lat="51.2141056" lon="6.2134684">
<ele>0.0000000</ele>
<time>2008-10-08T23:00:38Z</time>
</trkpt>
<trkpt lat="51.2133217" lon="6.2136780">
<ele>0.0000000</ele>
<time>2008-10-08T23:01:10Z</time>
</trkpt>
<trkpt lat="51.2128520" lon="6.2137729">
<ele>0.0000000</ele>
<time>2008-10-08T23:01:29Z</time>
</trkpt>
<trkpt lat="51.2118367" lon="6.2140089">
<ele>0.0000000</ele>
<time>2008-10-08T23:02:10Z</time>
</trkpt>
<trkpt lat="51.2108193" lon="6.2142601">
<ele>0.0000000</ele>
<time>2008-10-08T23:02:51Z</time>
</trkpt>
<trkpt lat="51.2099051" lon="6.2146976">
<ele>0.0000000</ele>
<time>2008-10-08T23:03:29Z</time>
</trkpt>
<trkpt lat="51.2088164" lon="6.2152601">
<ele>0.0000000</ele>
<time>2008-10-08T23:04:15Z</time>
</trkpt>
<trkpt lat="51.2078985" lon="6.2158173">
<ele>0.0000000</ele>
<time>2008-10-08T23:04:55Z</time>
</trkpt>
<trkpt lat="51.2067516" lon="6.2163858">
<ele>0.0000000</ele>
<time>2008-10-08T23:05:43Z</time>
</trkpt>
<trkpt lat="51.2059681" lon="6.2165654">
<ele>0.0000000</ele>
<time>2008-10-08T23:06:14Z</time>
</trkpt>
<trkpt lat="51.2050747" lon="6.2168675">
<ele>0.0000000</ele>
<time>2008-10-08T23:06:51Z</time>
</trkpt>
<trkpt lat="51.2039279" lon="6.2170987">
<ele>0.0000000</ele>
<time>2008-10-08T23:07:37Z</time>
</trkpt>
<trkpt lat="51.2026620" lon="6.2174490">
<ele>0.0000000</ele>
<time>2008-10-08T23:08:29Z</time>
</trkpt>
<trkpt lat="51.2017002" lon="6.2177308">
<ele>0.0000000</ele>
<time>2008-10-08T23:09:08Z</time>
</trkpt>
<trkpt lat="51.2010066" lon="6.2179977">
<ele>0.0000000</ele>
<time>2008-10-08T23:09:36Z</time>
</trkpt>
<trkpt lat="51.2002716" lon="6.2184076">
<ele>0.0000000</ele>
<time>2008-10-08T23:10:07Z</time>
</trkpt>
<trkpt lat="51.1995858" lon="6.2189619">
<ele>0.0000000</ele>
<time>2008-10-08T23:10:38Z</time>
</trkpt>
<trkpt lat="51.1989872" lon="6.2193287">
<ele>0.0000000</ele>
<time>2008-10-08T23:11:04Z</time>
</trkpt>
<trkpt lat="51.1985787" lon="6.2193131">
<ele>0.0000000</ele>
<time>2008-10-08T23:11:20Z</time>
</trkpt>
<trkpt lat="51.1981963" lon="6.2192401">
<ele>0.0000000</ele>
<time>2008-10-08T23:11:36Z</time>
</trkpt>
<trkpt lat="51.1979098" lon="6.2192235">
<ele>0.0000000</ele>
<time>2008-10-08T23:11:47Z</time>
</trkpt>
<trkpt lat="51.1976361" lon="6.2192823">
<ele>0.0000000</ele>
<time>2008-10-08T23:11:58Z</time>
</trkpt>
<trkpt lat="51.1972922" lon="6.2194737">
<ele>0.0000000</ele>
<time>2008-10-08T23:12:13Z</time>
</trkpt>
<trkpt lat="51.1969725" lon="6.2197405">
<ele>0.0000000</ele>
<time>2008-10-08T23:12:27Z</time>
</trkpt>
<trkpt lat="51.1967955" lon="6.2200060">
<ele>0.0000000</ele>
<time>2008-10-08T23:12:37Z</time>
</trkpt>
<trkpt lat="51.1966062" lon="6.2201960">
<ele>0.0000000</ele>
<time>2008-10-08T23:12:46Z</time>
</trkpt>
<trkpt lat="51.1965121" lon="6.2206320">
<ele>0.0000000</ele>
<time>2008-10-08T23:12:58Z</time>
</trkpt>
<trkpt lat="51.1963587" lon="6.2209731">
<ele>0.0000000</ele>
<time>2008-10-08T23:13:08Z</time>
</trkpt>
<trkpt lat="51.1960135" lon="6.2214711">
<ele>0.0000000</ele>
<time>2008-10-08T23:13:27Z</time>
</trkpt>
<trkpt lat="51.1955701" lon="6.2221072">
<ele>0.0000000</ele>
<time>2008-10-08T23:13:51Z</time>
</trkpt>
<trkpt lat="51.1951828" lon="6.2226335">
<ele>0.0000000</ele>
<time>2008-10-08T23:14:11Z</time>
</trkpt>
<trkpt lat="51.1948682" lon="6.2229849">
<ele>0.0000000</ele>
<time>2008-10-08T23:14:26Z</time>
</trkpt>
<trkpt lat="51.1944347" lon="6.2234887">
<ele>0.0000000</ele>
<time>2008-10-08T23:14:48Z</time>
</trkpt>
<trkpt lat="51.1941611" lon="6.2237359">
<ele>0.0000000</ele>
<time>2008-10-08T23:15:00Z</time>
</trkpt>
<trkpt lat="51.1939824" lon="6.2240038">
<ele>0.0000000</ele>
<time>2008-10-08T23:15:10Z</time>
</trkpt>
<trkpt lat="51.1939948" lon="6.2241762">
<ele>0.0000000</ele>
<time>2008-10-08T23:15:14Z</time>
</trkpt>
<trkpt lat="51.1941145" lon="6.2244834">
<ele>0.0000000</ele>
<time>2008-10-08T23:15:24Z</time>
</trkpt>
<trkpt lat="51.1946854" lon="6.2251480">
<ele>0.0000000</ele>
<time>2008-10-08T23:15:52Z</time>
</trkpt>
<trkpt lat="51.1955899" lon="6.2262443">
<ele>0.0000000</ele>
<time>2008-10-08T23:16:37Z</time>
</trkpt>
<trkpt lat="51.1964839" lon="6.2274006">
<ele>0.0000000</ele>
<time>2008-10-08T23:17:23Z</time>
</trkpt>
<trkpt lat="51.1972097" lon="6.2283787">
<ele>0.0000000</ele>
<time>2008-10-08T23:18:01Z</time>
</trkpt>
<trkpt lat="51.1976831" lon="6.2290657">
<ele>0.0000000</ele>
<time>2008-10-08T23:18:27Z</time>
</trkpt>
<trkpt lat="51.1980710" lon="6.2291862">
<ele>0.0000000</ele>
<time>2008-10-08T23:18:43Z</time>
</trkpt>
<trkpt lat="51.1983669" lon="6.2290911">
<ele>0.0000000</ele>
<time>2008-10-08T23:18:55Z</time>
</trkpt>
<trkpt lat="51.1986574" lon="6.2291091">
<ele>0.0000000</ele>
<time>2008-10-08T23:19:07Z</time>
</trkpt>
<trkpt lat="51.1989970" lon="6.2295515">
<ele>0.0000000</ele>
<time>2008-10-08T23:19:24Z</time>
</trkpt>
<trkpt lat="51.1994329" lon="6.2300318">
<ele>0.0000000</ele>
<time>2008-10-08T23:19:45Z</time>
</trkpt>
<trkpt lat="51.1999057" lon="6.2303774">
<ele>0.0000000</ele>
<time>2008-10-08T23:20:06Z</time>
</trkpt>
<trkpt lat="51.2003551" lon="6.2310320">
<ele>0.0000000</ele>
<time>2008-10-08T23:20:30Z</time>
</trkpt>
<trkpt lat="51.2007892" lon="6.2317371">
<ele>0.0000000</ele>
<time>2008-10-08T23:20:55Z</time>
</trkpt>
<trkpt lat="51.2010280" lon="6.2322858">
<ele>0.0000000</ele>
<time>2008-10-08T23:21:12Z</time>
</trkpt>
<trkpt lat="51.2010877" lon="6.2328556">
<ele>0.0000000</ele>
<time>2008-10-08T23:21:27Z</time>
</trkpt>
<trkpt lat="51.2010284" lon="6.2337116">
<ele>0.0000000</ele>
<time>2008-10-08T23:21:48Z</time>
</trkpt>
<trkpt lat="51.2008979" lon="6.2341897">
<ele>0.0000000</ele>
<time>2008-10-08T23:22:01Z</time>
</trkpt>
<trkpt lat="51.2007676" lon="6.2346898">
<ele>0.0000000</ele>
<time>2008-10-08T23:22:15Z</time>
</trkpt>
<trkpt lat="51.2010548" lon="6.2353489">
<ele>0.0000000</ele>
<time>2008-10-08T23:22:35Z</time>
</trkpt>
<trkpt lat="51.2013909" lon="6.2359973">
<ele>0.0000000</ele>
<time>2008-10-08T23:22:56Z</time>
</trkpt>
<trkpt lat="51.2014765" lon="6.2366297">
<ele>0.0000000</ele>
<time>2008-10-08T23:23:12Z</time>
</trkpt>
<trkpt lat="51.2013798" lon="6.2369460">
<ele>0.0000000</ele>
<time>2008-10-08T23:23:21Z</time>
</trkpt>
<trkpt lat="51.2008694" lon="6.2379549">
<ele>0.0000000</ele>
<time>2008-10-08T23:23:54Z</time>
</trkpt>
<trkpt lat="51.2002254" lon="6.2391936">
<ele>0.0000000</ele>
<time>2008-10-08T23:24:34Z</time>
</trkpt>
<trkpt lat="51.1996027" lon="6.2403903">
<ele>0.0000000</ele>
<time>2008-10-08T23:25:13Z</time>
</trkpt>
<trkpt lat="51.1991035" lon="6.2412928">
<ele>0.0000000</ele>
<time>2008-10-08T23:25:43Z</time>
</trkpt>
<trkpt lat="51.1985573" lon="6.2420195">
<ele>0.0000000</ele>
<time>2008-10-08T23:26:12Z</time>
</trkpt>
<trkpt lat="51.1978898" lon="6.2424415">
<ele>0.0000000</ele>
<time>2008-10-08T23:26:40Z</time>
</trkpt>
<trkpt lat="51.1970598" lon="6.2426584">
<ele>0.0000000</ele>
<time>2008-10-08T23:27:14Z</time>
</trkpt>
<trkpt lat="51.1962825" lon="6.2430121">
<ele>0.0000000</ele>
<time>2008-10-08T23:27:46Z</time>
</trkpt>
<trkpt lat="51.1952321" lon="6.2437682">
<ele>0.0000000</ele>
<time>2008-10-08T23:28:33Z</time>
</trkpt>
<trkpt lat="51.1944914" lon="6.2439435">
<ele>0.0000000</ele>
<time>2008-10-08T23:29:03Z</time>
</trkpt>
<trkpt lat="51.1937482" lon="6.2443606">
<ele>0.0000000</ele>
<time>2008-10-08T23:29:34Z</time>
</trkpt>
<trkpt lat="51.1929578" lon="6.2449381">
<ele>0.0000000</ele>
<time>2008-10-08T23:30:09Z</time>
</trkpt>
<trkpt lat="51.1924764" lon="6.2453870">
<ele>0.0000000</ele>
<time>2008-10-08T23:30:31Z</time>
</trkpt>
<trkpt lat="51.1922702" lon="6.2461439">
<ele>0.0000000</ele>
<time>2008-10-08T23:30:52Z</time>
</trkpt>
<trkpt lat="51.1920225" lon="6.2473849">
<ele>0.0000000</ele>
<time>2008-10-08T23:31:25Z</time>
</trkpt>
<trkpt lat="51.1919144" lon="6.2487343">
<ele>0.0000000</ele>
<time>2008-10-08T23:31:59Z</time>
</trkpt>
<trkpt lat="51.1919818" lon="6.2500689">
<ele>0.0000000</ele>
<time>2008-10-08T23:32:32Z</time>
</trkpt>
<trkpt lat="51.1920936" lon="6.2511024">
<ele>0.0000000</ele>
<time>2008-10-08T23:32:59Z</time>
</trkpt>
<trkpt lat="51.1921974" lon="6.2519791">
<ele>0.0000000</ele>
<time>2008-10-08T23:33:21Z</time>
</trkpt>
<trkpt lat="51.1921498" lon="6.2527274">
<ele>0.0000000</ele>
<time>2008-10-08T23:33:40Z</time>
</trkpt>
<trkpt lat="51.1920282" lon="6.2535922">
<ele>0.0000000</ele>
<time>2008-10-08T23:34:02Z</time>
</trkpt>
<trkpt lat="51.1917896" lon="6.2546690">
<ele>0.0000000</ele>
<time>2008-10-08T23:34:31Z</time>
</trkpt>
<trkpt lat="51.1914072" lon="6.2554571">
<ele>0.0000000</ele>
<time>2008-10-08T23:34:56Z</time>
</trkpt>
<trkpt lat="51.1910182" lon="6.2562778">
<ele>0.0000000</ele>
<time>2008-10-08T23:35:22Z</time>
</trkpt>
<trkpt lat="51.1905856" lon="6.2568799">
<ele>0.0000000</ele>
<time>2008-10-08T23:35:45Z</time>
</trkpt>
<trkpt lat="51.1898653" lon="6.2578441">
<ele>0.0000000</ele>
<time>2008-10-08T23:36:22Z</time>
</trkpt>
<trkpt lat="51.1893377" lon="6.2584036">
<ele>0.0000000</ele>
<time>2008-10-08T23:36:48Z</time>
</trkpt>
<trkpt lat="51.1887035" lon="6.2592504">
<ele>0.0000000</ele>
<time>2008-10-08T23:37:21Z</time>
</trkpt>
<trkpt lat="51.1883229" lon="6.2599987">
<ele>0.0000000</ele>
<time>2008-10-08T23:37:45Z</time>
</trkpt>
<trkpt lat="51.1881972" lon="6.2607894">
<ele>0.0000000</ele>
<time>2008-10-08T23:38:05Z</time>
</trkpt>
<trkpt lat="51.1880383" lon="6.2620624">
<ele>0.0000000</ele>
<time>2008-10-08T23:38:38Z</time>
</trkpt>
<trkpt lat="51.1880232" lon="6.2629176">
<ele>0.0000000</ele>
<time>2008-10-08T23:38:59Z</time>
</trkpt>
<trkpt lat="51.1878500" lon="6.2640220">
<ele>0.0000000</ele>
<time>2008-10-08T23:39:28Z</time>
</trkpt>
<trkpt lat="51.1875835" lon="6.2653148">
<ele>0.0000000</ele>
<time>2008-10-08T23:40:02Z</time>
</trkpt>
<trkpt lat="51.1874783" lon="6.2659250">
<ele>0.0000000</ele>
<time>2008-10-08T23:40:18Z</time>
</trkpt>
<trkpt lat="51.1870673" lon="6.2662200">
<ele>0.0000000</ele>
<time>2008-10-08T23:40:36Z</time>
</trkpt>
<trkpt lat="51.1864313" lon="6.2661246">
<ele>0.0000000</ele>
<time>2008-10-08T23:41:02Z</time>
</trkpt>
<trkpt lat="51.1860722" lon="6.2655312">
<ele>0.0000000</ele>
<time>2008-10-08T23:41:22Z</time>
</trkpt>
<trkpt lat="51.1856852" lon="6.2647789">
<ele>0.0000000</ele>
<time>2008-10-08T23:41:47Z</time>
</trkpt>
<trkpt lat="51.1855295" lon="6.2645907">
<ele>0.0000000</ele>
<time>2008-10-08T23:41:54Z</time>
</trkpt>
<trkpt lat="51.1849295" lon="6.2640079">
<ele>0.0000000</ele>
<time>2008-10-08T23:42:23Z</time>
</trkpt>
<trkpt lat="51.1847010" lon="6.2636858">
<ele>0.0000000</ele>
<time>2008-10-08T23:42:35Z</time>
</trkpt>
<trkpt lat="51.1839217" lon="6.2629772">
<ele>0.0000000</ele>
<time>2008-10-08T23:43:11Z</time>
</trkpt>
<trkpt lat="51.1834185" lon="6.2625002">
<ele>0.0000000</ele>
<time>2008-10-08T23:43:34Z</time>
</trkpt>
<trkpt lat="51.1832012" lon="6.2621208">
<ele>0.0000000</ele>
<time>2008-10-08T23:43:47Z</time>
</trkpt>
<trkpt lat="51.1828588" lon="6.2614210">
<ele>0.0000000</ele>
<time>2008-10-08T23:44:09Z</time>
</trkpt>
<trkpt lat="51.1824215" lon="6.2608124">
<ele>0.0000000</ele>
<time>2008-10-08T23:44:33Z</time>
</trkpt>
<trkpt lat="51.1820009" lon="6.2602381">
<ele>0.0000000</ele>
<time>2008-10-08T23:44:55Z</time>
</trkpt>
<trkpt lat="51.1813455" lon="6.2596643">
<ele>0.0000000</ele>
<time>2008-10-08T23:45:25Z</time>
</trkpt>
<trkpt lat="51.1804365" lon="6.2586346">
<ele>0.0000000</ele>
<time>2008-10-08T23:46:09Z</time>
</trkpt>
<trkpt lat="51.1794616" lon="6.2575557">
<ele>0.0000000</ele>
<time>2008-10-08T23:46:57Z</time>
</trkpt>
<trkpt lat="51.1781603" lon="6.2562602">
<ele>0.0000000</ele>
<time>2008-10-08T23:47:58Z</time>
</trkpt>
<trkpt lat="51.1779109" lon="6.2561483">
<ele>0.0000000</ele>
<time>2008-10-08T23:48:09Z</time>
</trkpt>
<trkpt lat="51.1778758" lon="6.2564325">
<ele>0.0000000</ele>
<time>2008-10-08T23:48:16Z</time>
</trkpt>
<trkpt lat="51.1780547" lon="6.2569803">
<ele>0.0000000</ele>
<time>2008-10-08T23:48:31Z</time>
</trkpt>
<trkpt lat="51.1783783" lon="6.2587218">
<ele>0.0000000</ele>
<time>2008-10-08T23:49:17Z</time>
</trkpt>
<trkpt lat="51.1784393" lon="6.2596514">
<ele>0.0000000</ele>
<time>2008-10-08T23:49:40Z</time>
</trkpt>
<trkpt lat="51.1784050" lon="6.2604865">
<ele>0.0000000</ele>
<time>2008-10-08T23:50:01Z</time>
</trkpt>
<trkpt lat="51.1782756" lon="6.2613007">
<ele>0.0000000</ele>
<time>2008-10-08T23:50:22Z</time>
</trkpt>
<trkpt lat="51.1779113" lon="6.2623284">
<ele>0.0000000</ele>
<time>2008-10-08T23:50:52Z</time>
</trkpt>
<trkpt lat="51.1774953" lon="6.2633863">
<ele>0.0000000</ele>
<time>2008-10-08T23:51:23Z</time>
</trkpt>
<trkpt lat="51.1770527" lon="6.2644306">
<ele>0.0000000</ele>
<time>2008-10-08T23:51:55Z</time>
</trkpt>
<trkpt lat="51.1765402" lon="6.2655419">
<ele>0.0000000</ele>
<time>2008-10-08T23:52:30Z</time>
</trkpt>
<trkpt lat="51.1762064" lon="6.2667097">
<ele>0.0000000</ele>
<time>2008-10-08T23:53:02Z</time>
</trkpt>
<trkpt lat="51.1761106" lon="6.2671869">
<ele>0.0000000</ele>
<time>2008-10-08T23:53:14Z</time>
</trkpt>
<trkpt lat="51.1759645" lon="6.2684244">
<ele>0.0000000</ele>
<time>2008-10-08T23:53:46Z</time>
</trkpt>
<trkpt lat="51.1759990" lon="6.2697967">
<ele>0.0000000</ele>
<time>2008-10-08T23:54:20Z</time>
</trkpt>
<trkpt lat="51.1761488" lon="6.2713634">
<ele>0.0000000</ele>
<time>2008-10-08T23:55:00Z</time>
</trkpt>
<trkpt lat="51.1763100" lon="6.2727514">
<ele>0.0000000</ele>
<time>2008-10-08T23:55:36Z</time>
</trkpt>
<trkpt lat="51.1764115" lon="6.2735664">
<ele>0.0000000</ele>
<time>2008-10-08T23:55:57Z</time>
</trkpt>
<trkpt lat="51.1764643" lon="6.2742644">
<ele>0.0000000</ele>
<time>2008-10-08T23:56:14Z</time>
</trkpt>
<trkpt lat="51.1764781" lon="6.2747000">
<ele>0.0000000</ele>
<time>2008-10-08T23:56:25Z</time>
</trkpt>
<trkpt lat="51.1760622" lon="6.2756140">
<ele>0.0000000</ele>
<time>2008-10-08T23:56:53Z</time>
</trkpt>
<trkpt lat="51.1758233" lon="6.2761504">
<ele>0.0000000</ele>
<time>2008-10-08T23:57:10Z</time>
</trkpt>
<trkpt lat="51.1753908" lon="6.2767314">
<ele>0.0000000</ele>
<time>2008-10-08T23:57:33Z</time>
</trkpt>
<trkpt lat="51.1750446" lon="6.2770756">
<ele>0.0000000</ele>
<time>2008-10-08T23:57:49Z</time>
</trkpt>
<trkpt lat="51.1745597" lon="6.2771092">
<ele>0.0000000</ele>
<time>2008-10-08T23:58:08Z</time>
</trkpt>
<trkpt lat="51.1739824" lon="6.2770382">
<ele>0.0000000</ele>
<time>2008-10-08T23:58:32Z</time>
</trkpt>
<trkpt lat="51.1734812" lon="6.2769963">
<ele>0.0000000</ele>
<time>2008-10-08T23:58:52Z</time>
</trkpt>
<trkpt lat="51.1731246" lon="6.2771182">
<ele>0.0000000</ele>
<time>2008-10-08T23:59:06Z</time>
</trkpt>
<trkpt lat="51.1728534" lon="6.2773539">
<ele>0.0000000</ele>
<time>2008-10-08T23:59:19Z</time>
</trkpt>
<trkpt lat="51.1727021" lon="6.2780990">
<ele>0.0000000</ele>
<time>2008-10-08T23:59:38Z</time>
</trkpt>
<trkpt lat="51.1726798" lon="6.2787830">
<ele>0.0000000</ele>
<time>2008-10-08T23:59:55Z</time>
</trkpt>
<trkpt lat="51.1725264" lon="6.2795619">
<ele>0.0000000</ele>
<time>2008-10-09T00:00:16Z</time>
</trkpt>
<trkpt lat="51.1723078" lon="6.2804152">
<ele>0.0000000</ele>
<time>2008-10-09T00:00:39Z</time>
</trkpt>
<trkpt lat="51.1721266" lon="6.2809417">
<ele>0.0000000</ele>
<time>2008-10-09T00:00:54Z</time>
</trkpt>
<trkpt lat="51.1717246" lon="6.2814831">
<ele>0.0000000</ele>
<time>2008-10-09T00:01:15Z</time>
</trkpt>
<trkpt lat="51.1712359" lon="6.2819133">
<ele>0.0000000</ele>
<time>2008-10-09T00:01:38Z</time>
</trkpt>
<trkpt lat="51.1707948" lon="6.2824074">
<ele>0.0000000</ele>
<time>2008-10-09T00:01:59Z</time>
</trkpt>
<trkpt lat="51.1703119" lon="6.2831524">
<ele>0.0000000</ele>
<time>2008-10-09T00:02:26Z</time>
</trkpt>
<trkpt lat="51.1699378" lon="6.2836598">
<ele>0.0000000</ele>
<time>2008-10-09T00:02:46Z</time>
</trkpt>
<trkpt lat="51.1695397" lon="6.2843452">
<ele>0.0000000</ele>
<time>2008-10-09T00:03:09Z</time>
</trkpt>
<trkpt lat="51.1691154" lon="6.2848552">
<ele>0.0000000</ele>
<time>2008-10-09T00:03:30Z</time>
</trkpt>
<trkpt lat="51.1688677" lon="6.2849880">
<ele>0.0000000</ele>
<time>2008-10-09T00:03:41Z</time>
</trkpt>
<trkpt lat="51.1684421" lon="6.2847074">
<ele>0.0000000</ele>
<time>2008-10-09T00:03:59Z</time>
</trkpt>
<trkpt lat="51.1679106" lon="6.2843521">
<ele>0.0000000</ele>
<time>2008-10-09T00:04:22Z</time>
</trkpt>
<trkpt lat="51.1674033" lon="6.2840163">
<ele>0.0000000</ele>
<time>2008-10-09T00:04:44Z</time>
</trkpt>
<trkpt lat="51.1668972" lon="6.2837191">
<ele>0.0000000</ele>
<time>2008-10-09T00:05:06Z</time>
</trkpt>
<trkpt lat="51.1665920" lon="6.2837025">
<ele>0.0000000</ele>
<time>2008-10-09T00:05:18Z</time>
</trkpt>
<trkpt lat="51.1658982" lon="6.2837433">
<ele>0.0000000</ele>
<time>2008-10-09T00:05:46Z</time>
</trkpt>
<trkpt lat="51.1653356" lon="6.2838030">
<ele>0.0000000</ele>
<time>2008-10-09T00:06:09Z</time>
</trkpt>
<trkpt lat="51.1645202" lon="6.2838981">
<ele>0.0000000</ele>
<time>2008-10-09T00:06:41Z</time>
</trkpt>
<trkpt lat="51.1638196" lon="6.2837670">
<ele>0.0000000</ele>
<time>2008-10-09T00:07:09Z</time>
</trkpt>
<trkpt lat="51.1628863" lon="6.2837290">
<ele>0.0000000</ele>
<time>2008-10-09T00:07:47Z</time>
</trkpt>
<trkpt lat="51.1622004" lon="6.2836608">
<ele>0.0000000</ele>
<time>2008-10-09T00:08:14Z</time>
</trkpt>
<trkpt lat="51.1614818" lon="6.2836084">
<ele>0.0000000</ele>
<time>2008-10-09T00:08:43Z</time>
</trkpt>
<trkpt lat="51.1609741" lon="6.2834953">
<ele>0.0000000</ele>
<time>2008-10-09T00:09:04Z</time>
</trkpt>
<trkpt lat="51.1605712" lon="6.2835314">
<ele>0.0000000</ele>
<time>2008-10-09T00:09:20Z</time>
</trkpt>
<trkpt lat="51.1602622" lon="6.2835302">
<ele>0.0000000</ele>
<time>2008-10-09T00:09:32Z</time>
</trkpt>
<trkpt lat="51.1601802" lon="6.2838323">
<ele>0.0000000</ele>
<time>2008-10-09T00:09:40Z</time>
</trkpt>
<trkpt lat="51.1600400" lon="6.2847000">
<ele>0.0000000</ele>
<time>2008-10-09T00:10:03Z</time>
</trkpt>
<trkpt lat="51.1598756" lon="6.2859049">
<ele>0.0000000</ele>
<time>2008-10-09T00:10:34Z</time>
</trkpt>
<trkpt lat="51.1595514" lon="6.2871036">
<ele>0.0000000</ele>
<time>2008-10-09T00:11:07Z</time>
</trkpt>
<trkpt lat="51.1584947" lon="6.2903686">
<ele>0.0000000</ele>
<time>2008-10-09T00:12:39Z</time>
</trkpt>
<trkpt lat="51.1579086" lon="6.2924773">
<ele>0.0000000</ele>
<time>2008-10-09T00:13:37Z</time>
</trkpt>
<trkpt lat="51.1572540" lon="6.2945550">
<ele>0.0000000</ele>
<time>2008-10-09T00:14:35Z</time>
</trkpt>
<trkpt lat="51.1566912" lon="6.2961371">
<ele>0.0000000</ele>
<time>2008-10-09T00:15:21Z</time>
</trkpt>
<trkpt lat="51.1561450" lon="6.2977999">
<ele>0.0000000</ele>
<time>2008-10-09T00:16:08Z</time>
</trkpt>
<trkpt lat="51.1557945" lon="6.2988775">
<ele>0.0000000</ele>
<time>2008-10-09T00:16:38Z</time>
</trkpt>
<trkpt lat="51.1539844" lon="6.2991324">
<ele>0.0000000</ele>
<time>2008-10-09T00:17:51Z</time>
</trkpt>
<trkpt lat="51.1530612" lon="6.2992261">
<ele>0.0000000</ele>
<time>2008-10-09T00:18:28Z</time>
</trkpt>
<trkpt lat="51.1529262" lon="6.2995136">
<ele>0.0000000</ele>
<time>2008-10-09T00:18:37Z</time>
</trkpt>
<trkpt lat="51.1528676" lon="6.2998353">
<ele>0.0000000</ele>
<time>2008-10-09T00:18:46Z</time>
</trkpt>
<trkpt lat="51.1529151" lon="6.3002105">
<ele>0.0000000</ele>
<time>2008-10-09T00:18:55Z</time>
</trkpt>
<trkpt lat="51.1527271" lon="6.3011929">
<ele>0.0000000</ele>
<time>2008-10-09T00:19:21Z</time>
</trkpt>
<trkpt lat="51.1526674" lon="6.3020208">
<ele>0.0000000</ele>
<time>2008-10-09T00:19:42Z</time>
</trkpt>
<trkpt lat="51.1527268" lon="6.3028707">
<ele>0.0000000</ele>
<time>2008-10-09T00:20:03Z</time>
</trkpt>
<trkpt lat="51.1529856" lon="6.3078804">
<ele>0.0000000</ele>
<time>2008-10-09T00:22:10Z</time>
</trkpt>
<trkpt lat="51.1528821" lon="6.3086210">
<ele>0.0000000</ele>
<time>2008-10-09T00:22:29Z</time>
</trkpt>
<trkpt lat="51.1528249" lon="6.3091210">
<ele>0.0000000</ele>
<time>2008-10-09T00:22:42Z</time>
</trkpt>
<trkpt lat="51.1526248" lon="6.3095759">
<ele>0.0000000</ele>
<time>2008-10-09T00:22:55Z</time>
</trkpt>
<trkpt lat="51.1522817" lon="6.3100195">
<ele>0.0000000</ele>
<time>2008-10-09T00:23:13Z</time>
</trkpt>
<trkpt lat="51.1521521" lon="6.3105302">
<ele>0.0000000</ele>
<time>2008-10-09T00:23:27Z</time>
</trkpt>
<trkpt lat="51.1520679" lon="6.3114283">
<ele>0.0000000</ele>
<time>2008-10-09T00:23:50Z</time>
</trkpt>
<trkpt lat="51.1519997" lon="6.3127706">
<ele>0.0000000</ele>
<time>2008-10-09T00:24:24Z</time>
</trkpt>
<trkpt lat="51.1519520" lon="6.3137106">
<ele>0.0000000</ele>
<time>2008-10-09T00:24:47Z</time>
</trkpt>
<trkpt lat="51.1518816" lon="6.3143327">
<ele>0.0000000</ele>
<time>2008-10-09T00:25:03Z</time>
</trkpt>
<trkpt lat="51.1517885" lon="6.3148421">
<ele>0.0000000</ele>
<time>2008-10-09T00:25:16Z</time>
</trkpt>
<trkpt lat="51.1515452" lon="6.3152199">
<ele>0.0000000</ele>
<time>2008-10-09T00:25:30Z</time>
</trkpt>
<trkpt lat="51.1514081" lon="6.3155395">
<ele>0.0000000</ele>
<time>2008-10-09T00:25:40Z</time>
</trkpt>
<trkpt lat="51.1512890" lon="6.3159720">
<ele>0.0000000</ele>
<time>2008-10-09T00:25:52Z</time>
</trkpt>
<trkpt lat="51.1513239" lon="6.3164419">
<ele>0.0000000</ele>
<time>2008-10-09T00:26:04Z</time>
</trkpt>
<trkpt lat="51.1515201" lon="6.3171973">
<ele>0.0000000</ele>
<time>2008-10-09T00:26:24Z</time>
</trkpt>
<trkpt lat="51.1517028" lon="6.3180736">
<ele>0.0000000</ele>
<time>2008-10-09T00:26:47Z</time>
</trkpt>
<trkpt lat="51.1518449" lon="6.3183956">
<ele>0.0000000</ele>
<time>2008-10-09T00:26:57Z</time>
</trkpt>
<trkpt lat="51.1518622" lon="6.3199371">
<ele>0.0000000</ele>
<time>2008-10-09T00:27:36Z</time>
</trkpt>
<trkpt lat="51.1515343" lon="6.3211399">
<ele>0.0000000</ele>
<time>2008-10-09T00:28:09Z</time>
</trkpt>
<trkpt lat="51.1513481" lon="6.3218319">
<ele>0.0000000</ele>
<time>2008-10-09T00:28:28Z</time>
</trkpt>
<trkpt lat="51.1511140" lon="6.3224877">
<ele>0.0000000</ele>
<time>2008-10-09T00:28:47Z</time>
</trkpt>
<trkpt lat="51.1509632" lon="6.3230276">
<ele>0.0000000</ele>
<time>2008-10-09T00:29:01Z</time>
</trkpt>
<trkpt lat="51.1507499" lon="6.3236690">
<ele>0.0000000</ele>
<time>2008-10-09T00:29:20Z</time>
</trkpt>
<trkpt lat="51.1503867" lon="6.3241010">
<ele>0.0000000</ele>
<time>2008-10-09T00:29:38Z</time>
</trkpt>
<trkpt lat="51.1502913" lon="6.3244224">
<ele>0.0000000</ele>
<time>2008-10-09T00:29:47Z</time>
</trkpt>
<trkpt lat="51.1500459" lon="6.3240070">
<ele>0.0000000</ele>
<time>2008-10-09T00:30:01Z</time>
</trkpt>
<trkpt lat="51.1496312" lon="6.3232191">
<ele>0.0000000</ele>
<time>2008-10-09T00:30:27Z</time>
</trkpt>
<trkpt lat="51.1491652" lon="6.3222058">
<ele>0.0000000</ele>
<time>2008-10-09T00:30:58Z</time>
</trkpt>
<trkpt lat="51.1486286" lon="6.3212099">
<ele>0.0000000</ele>
<time>2008-10-09T00:31:31Z</time>
</trkpt>
<trkpt lat="51.1483292" lon="6.3209107">
<ele>0.0000000</ele>
<time>2008-10-09T00:31:46Z</time>
</trkpt>
<trkpt lat="51.1477482" lon="6.3205954">
<ele>0.0000000</ele>
<time>2008-10-09T00:32:10Z</time>
</trkpt>
<trkpt lat="51.1473471" lon="6.3203734">
<ele>0.0000000</ele>
<time>2008-10-09T00:32:27Z</time>
</trkpt>
<trkpt lat="51.1470306" lon="6.3204117">
<ele>0.0000000</ele>
<time>2008-10-09T00:32:40Z</time>
</trkpt>
<trkpt lat="51.1465731" lon="6.3203194">
<ele>0.0000000</ele>
<time>2008-10-09T00:32:58Z</time>
</trkpt>
<trkpt lat="51.1461153" lon="6.3200215">
<ele>0.0000000</ele>
<time>2008-10-09T00:33:18Z</time>
</trkpt>
<trkpt lat="51.1453218" lon="6.3188127">
<ele>0.0000000</ele>
<time>2008-10-09T00:34:02Z</time>
</trkpt>
<trkpt lat="51.1445440" lon="6.3199992">
<ele>0.0000000</ele>
<time>2008-10-09T00:34:45Z</time>
</trkpt>
<trkpt lat="51.1436039" lon="6.3207550">
<ele>0.0000000</ele>
<time>2008-10-09T00:35:27Z</time>
</trkpt>
<trkpt lat="51.1427306" lon="6.3213588">
<ele>0.0000000</ele>
<time>2008-10-09T00:36:05Z</time>
</trkpt>
<trkpt lat="51.1421827" lon="6.3215486">
<ele>0.0000000</ele>
<time>2008-10-09T00:36:28Z</time>
</trkpt>
<trkpt lat="51.1418837" lon="6.3217380">
<ele>0.0000000</ele>
<time>2008-10-09T00:36:41Z</time>
</trkpt>
<trkpt lat="51.1418349" lon="6.3219832">
<ele>0.0000000</ele>
<time>2008-10-09T00:36:47Z</time>
</trkpt>
<trkpt lat="51.1419772" lon="6.3223220">
<ele>0.0000000</ele>
<time>2008-10-09T00:36:57Z</time>
</trkpt>
<trkpt lat="51.1420850" lon="6.3226984">
<ele>0.0000000</ele>
<time>2008-10-09T00:37:08Z</time>
</trkpt>
<trkpt lat="51.1421265" lon="6.3233177">
<ele>0.0000000</ele>
<time>2008-10-09T00:37:23Z</time>
</trkpt>
<trkpt lat="51.1423037" lon="6.3239762">
<ele>0.0000000</ele>
<time>2008-10-09T00:37:41Z</time>
</trkpt>
<trkpt lat="51.1421041" lon="6.3241267">
<ele>0.0000000</ele>
<time>2008-10-09T00:37:50Z</time>
</trkpt>
<trkpt lat="51.1416018" lon="6.3243509">
<ele>0.0000000</ele>
<time>2008-10-09T00:38:11Z</time>
</trkpt>
<trkpt lat="51.1407559" lon="6.3248568">
<ele>0.0000000</ele>
<time>2008-10-09T00:38:47Z</time>
</trkpt>
<trkpt lat="51.1356083" lon="6.3271302">
<ele>0.0000000</ele>
<time>2008-10-09T00:42:21Z</time>
</trkpt>
<trkpt lat="51.1332080" lon="6.3282775">
<ele>0.0000000</ele>
<time>2008-10-09T00:44:01Z</time>
</trkpt>
<trkpt lat="51.1317171" lon="6.3289748">
<ele>0.0000000</ele>
<time>2008-10-09T00:45:04Z</time>
</trkpt>
<trkpt lat="51.1303516" lon="6.3287918">
<ele>0.0000000</ele>
<time>2008-10-09T00:45:59Z</time>
</trkpt>
<trkpt lat="51.1301761" lon="6.3288482">
<ele>0.0000000</ele>
<time>2008-10-09T00:46:06Z</time>
</trkpt>
<trkpt lat="51.1301885" lon="6.3294075">
<ele>0.0000000</ele>
<time>2008-10-09T00:46:20Z</time>
</trkpt>
<trkpt lat="51.1302100" lon="6.3304159">
<ele>0.0000000</ele>
<time>2008-10-09T00:46:45Z</time>
</trkpt>
<trkpt lat="51.1298730" lon="6.3313114">
<ele>0.0000000</ele>
<time>2008-10-09T00:47:11Z</time>
</trkpt>
<trkpt lat="51.1291593" lon="6.3308465">
<ele>0.0000000</ele>
<time>2008-10-09T00:47:42Z</time>
</trkpt>
<trkpt lat="51.1280002" lon="6.3299544">
<ele>0.0000000</ele>
<time>2008-10-09T00:48:34Z</time>
</trkpt>
<trkpt lat="51.1277872" lon="6.3299181">
<ele>0.0000000</ele>
<time>2008-10-09T00:48:42Z</time>
</trkpt>
<trkpt lat="51.1274717" lon="6.3315679">
<ele>0.0000000</ele>
<time>2008-10-09T00:49:26Z</time>
</trkpt>
<trkpt lat="51.1271440" lon="6.3332194">
<ele>0.0000000</ele>
<time>2008-10-09T00:50:09Z</time>
</trkpt>
<trkpt lat="51.1268774" lon="6.3345363">
<ele>0.0000000</ele>
<time>2008-10-09T00:50:44Z</time>
</trkpt>
<trkpt lat="51.1268097" lon="6.3355919">
<ele>0.0000000</ele>
<time>2008-10-09T00:51:11Z</time>
</trkpt>
<trkpt lat="51.1268002" lon="6.3367603">
<ele>0.0000000</ele>
<time>2008-10-09T00:51:40Z</time>
</trkpt>
<trkpt lat="51.1267299" lon="6.3374265">
<ele>0.0000000</ele>
<time>2008-10-09T00:51:57Z</time>
</trkpt>
<trkpt lat="51.1262393" lon="6.3400373">
<ele>0.0000000</ele>
<time>2008-10-09T00:53:05Z</time>
</trkpt>
<trkpt lat="51.1257739" lon="6.3423156">
<ele>0.0000000</ele>
<time>2008-10-09T00:54:06Z</time>
</trkpt>
<trkpt lat="51.1251322" lon="6.3464810">
<ele>0.0000000</ele>
<time>2008-10-09T00:55:53Z</time>
</trkpt>
<trkpt lat="51.1245831" lon="6.3502842">
<ele>0.0000000</ele>
<time>2008-10-09T00:57:31Z</time>
</trkpt>
<trkpt lat="51.1240727" lon="6.3539504">
<ele>0.0000000</ele>
<time>2008-10-09T00:59:06Z</time>
</trkpt>
<trkpt lat="51.1226092" lon="6.3525533">
<ele>0.0000000</ele>
<time>2008-10-09T01:00:14Z</time>
</trkpt>
<trkpt lat="51.1210777" lon="6.3513130">
<ele>0.0000000</ele>
<time>2008-10-09T01:01:23Z</time>
</trkpt>
<trkpt lat="51.1200236" lon="6.3504571">
<ele>0.0000000</ele>
<time>2008-10-09T01:02:10Z</time>
</trkpt>
<trkpt lat="51.1199195" lon="6.3507379">
<ele>0.0000000</ele>
<time>2008-10-09T01:02:18Z</time>
</trkpt>
<trkpt lat="51.1188709" lon="6.3526964">
<ele>0.0000000</ele>
<time>2008-10-09T01:03:23Z</time>
</trkpt>
<trkpt lat="51.1183575" lon="6.3537399">
<ele>0.0000000</ele>
<time>2008-10-09T01:03:56Z</time>
</trkpt>
<trkpt lat="51.1174247" lon="6.3557668">
<ele>0.0000000</ele>
<time>2008-10-09T01:04:59Z</time>
</trkpt>
<trkpt lat="51.1174249" lon="6.3558968">
<ele>0.0000000</ele>
<time>2008-10-09T01:05:03Z</time>
</trkpt>
<trkpt lat="51.1165871" lon="6.3574582">
<ele>0.0000000</ele>
<time>2008-10-09T01:05:54Z</time>
</trkpt>
<trkpt lat="51.1160879" lon="6.3584387">
<ele>0.0000000</ele>
<time>2008-10-09T01:06:26Z</time>
</trkpt>
<trkpt lat="51.1153164" lon="6.3600493">
<ele>0.0000000</ele>
<time>2008-10-09T01:07:17Z</time>
</trkpt>
<trkpt lat="51.1146540" lon="6.3614217">
<ele>0.0000000</ele>
<time>2008-10-09T01:08:00Z</time>
</trkpt>
<trkpt lat="51.1142730" lon="6.3622870">
<ele>0.0000000</ele>
<time>2008-10-09T01:08:27Z</time>
</trkpt>
<trkpt lat="51.1138333" lon="6.3643153">
<ele>0.0000000</ele>
<time>2008-10-09T01:09:21Z</time>
</trkpt>
<trkpt lat="51.1132525" lon="6.3671925">
<ele>0.0000000</ele>
<time>2008-10-09T01:10:37Z</time>
</trkpt>
<trkpt lat="51.1126264" lon="6.3702336">
<ele>0.0000000</ele>
<time>2008-10-09T01:11:57Z</time>
</trkpt>
<trkpt lat="51.1123372" lon="6.3715062">
<ele>0.0000000</ele>
<time>2008-10-09T01:12:31Z</time>
</trkpt>
<trkpt lat="51.1121299" lon="6.3723302">
<ele>0.0000000</ele>
<time>2008-10-09T01:12:54Z</time>
</trkpt>
<trkpt lat="51.1119685" lon="6.3728063">
<ele>0.0000000</ele>
<time>2008-10-09T01:13:07Z</time>
</trkpt>
<trkpt lat="51.1115036" lon="6.3738325">
<ele>0.0000000</ele>
<time>2008-10-09T01:13:39Z</time>
</trkpt>
<trkpt lat="51.1109933" lon="6.3751669">
<ele>0.0000000</ele>
<time>2008-10-09T01:14:18Z</time>
</trkpt>
<trkpt lat="51.1101582" lon="6.3776061">
<ele>0.0000000</ele>
<time>2008-10-09T01:15:28Z</time>
</trkpt>
<trkpt lat="51.1099843" lon="6.3782748">
<ele>0.0000000</ele>
<time>2008-10-09T01:15:46Z</time>
</trkpt>
<trkpt lat="51.1098333" lon="6.3792231">
<ele>0.0000000</ele>
<time>2008-10-09T01:16:11Z</time>
</trkpt>
<trkpt lat="51.1095424" lon="6.3807118">
<ele>0.0000000</ele>
<time>2008-10-09T01:16:50Z</time>
</trkpt>
<trkpt lat="51.1094028" lon="6.3811949">
<ele>0.0000000</ele>
<time>2008-10-09T01:17:03Z</time>
</trkpt>
<trkpt lat="51.1090528" lon="6.3819964">
<ele>0.0000000</ele>
<time>2008-10-09T01:17:28Z</time>
</trkpt>
<trkpt lat="51.1087968" lon="6.3829065">
<ele>0.0000000</ele>
<time>2008-10-09T01:17:53Z</time>
</trkpt>
<trkpt lat="51.1085980" lon="6.3833187">
<ele>0.0000000</ele>
<time>2008-10-09T01:18:06Z</time>
</trkpt>
<trkpt lat="51.1084704" lon="6.3836135">
<ele>0.0000000</ele>
<time>2008-10-09T01:18:15Z</time>
</trkpt>
<trkpt lat="51.1084591" lon="6.3837238">
<ele>0.0000000</ele>
<time>2008-10-09T01:18:18Z</time>
</trkpt>
<trkpt lat="51.1086237" lon="6.3841644">
<ele>0.0000000</ele>
<time>2008-10-09T01:18:31Z</time>
</trkpt>
<trkpt lat="51.1093235" lon="6.3852684">
<ele>0.0000000</ele>
<time>2008-10-09T01:19:10Z</time>
</trkpt>
<trkpt lat="51.1096274" lon="6.3859606">
<ele>0.0000000</ele>
<time>2008-10-09T01:19:31Z</time>
</trkpt>
<trkpt lat="51.1099550" lon="6.3867316">
<ele>0.0000000</ele>
<time>2008-10-09T01:19:55Z</time>
</trkpt>
<trkpt lat="51.1102356" lon="6.3874960">
<ele>0.0000000</ele>
<time>2008-10-09T01:20:17Z</time>
</trkpt>
<trkpt lat="51.1104456" lon="6.3879624">
<ele>0.0000000</ele>
<time>2008-10-09T01:20:32Z</time>
</trkpt>
<trkpt lat="51.1105973" lon="6.3884460">
<ele>0.0000000</ele>
<time>2008-10-09T01:20:45Z</time>
</trkpt>
<trkpt lat="51.1106097" lon="6.3890774">
<ele>0.0000000</ele>
<time>2008-10-09T01:21:01Z</time>
</trkpt>
<trkpt lat="51.1105757" lon="6.3897834">
<ele>0.0000000</ele>
<time>2008-10-09T01:21:19Z</time>
</trkpt>
<trkpt lat="51.1107166" lon="6.3903227">
<ele>0.0000000</ele>
<time>2008-10-09T01:21:34Z</time>
</trkpt>
<trkpt lat="51.1109047" lon="6.3909557">
<ele>0.0000000</ele>
<time>2008-10-09T01:21:51Z</time>
</trkpt>
<trkpt lat="51.1110581" lon="6.3914407">
<ele>0.0000000</ele>
<time>2008-10-09T01:22:05Z</time>
</trkpt>
<trkpt lat="51.1111301" lon="6.3920762">
<ele>0.0000000</ele>
<time>2008-10-09T01:22:21Z</time>
</trkpt>
<trkpt lat="51.1111074" lon="6.3932335">
<ele>0.0000000</ele>
<time>2008-10-09T01:22:50Z</time>
</trkpt>
<trkpt lat="51.1111200" lon="6.3941489">
<ele>0.0000000</ele>
<time>2008-10-09T01:23:13Z</time>
</trkpt>
<trkpt lat="51.1111807" lon="6.3949761">
<ele>0.0000000</ele>
<time>2008-10-09T01:23:34Z</time>
</trkpt>
<trkpt lat="51.1112877" lon="6.3959695">
<ele>0.0000000</ele>
<time>2008-10-09T01:23:59Z</time>
</trkpt>
<trkpt lat="51.1116476" lon="6.3973911">
<ele>0.0000000</ele>
<time>2008-10-09T01:24:38Z</time>
</trkpt>
<trkpt lat="51.1119980" lon="6.3986702">
<ele>0.0000000</ele>
<time>2008-10-09T01:25:13Z</time>
</trkpt>
<trkpt lat="51.1121625" lon="6.3994381">
<ele>0.0000000</ele>
<time>2008-10-09T01:25:33Z</time>
</trkpt>
<trkpt lat="51.1122565" lon="6.4001457">
<ele>0.0000000</ele>
<time>2008-10-09T01:25:52Z</time>
</trkpt>
<trkpt lat="51.1123037" lon="6.4006718">
<ele>0.0000000</ele>
<time>2008-10-09T01:26:05Z</time>
</trkpt>
<trkpt lat="51.1123625" lon="6.4017982">
<ele>0.0000000</ele>
<time>2008-10-09T01:26:33Z</time>
</trkpt>
<trkpt lat="51.1125513" lon="6.4027829">
<ele>0.0000000</ele>
<time>2008-10-09T01:26:59Z</time>
</trkpt>
<trkpt lat="51.1127529" lon="6.4038345">
<ele>0.0000000</ele>
<time>2008-10-09T01:27:27Z</time>
</trkpt>
<trkpt lat="51.1128362" lon="6.4043051">
<ele>0.0000000</ele>
<time>2008-10-09T01:27:39Z</time>
</trkpt>
<trkpt lat="51.1132997" lon="6.4058710">
<ele>0.0000000</ele>
<time>2008-10-09T01:28:23Z</time>
</trkpt>
<trkpt lat="51.1133935" lon="6.4064535">
<ele>0.0000000</ele>
<time>2008-10-09T01:28:38Z</time>
</trkpt>
<trkpt lat="51.1134175" lon="6.4073017">
<ele>0.0000000</ele>
<time>2008-10-09T01:28:59Z</time>
</trkpt>
<trkpt lat="51.1134787" lon="6.4085330">
<ele>0.0000000</ele>
<time>2008-10-09T01:29:30Z</time>
</trkpt>
<trkpt lat="51.1136360" lon="6.4092059">
<ele>0.0000000</ele>
<time>2008-10-09T01:29:48Z</time>
</trkpt>
<trkpt lat="51.1137202" lon="6.4104759">
<ele>0.0000000</ele>
<time>2008-10-09T01:30:20Z</time>
</trkpt>
<trkpt lat="51.1138125" lon="6.4114815">
<ele>0.0000000</ele>
<time>2008-10-09T01:30:46Z</time>
</trkpt>
<trkpt lat="51.1139018" lon="6.4123184">
<ele>0.0000000</ele>
<time>2008-10-09T01:31:07Z</time>
</trkpt>
<trkpt lat="51.1139320" lon="6.4129634">
<ele>0.0000000</ele>
<time>2008-10-09T01:31:23Z</time>
</trkpt>
<trkpt lat="51.1138359" lon="6.4132625">
<ele>0.0000000</ele>
<time>2008-10-09T01:31:32Z</time>
</trkpt>
<trkpt lat="51.1134001" lon="6.4138095">
<ele>0.0000000</ele>
<time>2008-10-09T01:31:54Z</time>
</trkpt>
<trkpt lat="51.1130122" lon="6.4144674">
<ele>0.0000000</ele>
<time>2008-10-09T01:32:17Z</time>
</trkpt>
<trkpt lat="51.1125321" lon="6.4152913">
<ele>0.0000000</ele>
<time>2008-10-09T01:32:45Z</time>
</trkpt>
<trkpt lat="51.1122045" lon="6.4158673">
<ele>0.0000000</ele>
<time>2008-10-09T01:33:04Z</time>
</trkpt>
<trkpt lat="51.1119219" lon="6.4165208">
<ele>0.0000000</ele>
<time>2008-10-09T01:33:24Z</time>
</trkpt>
<trkpt lat="51.1118159" lon="6.4169329">
<ele>0.0000000</ele>
<time>2008-10-09T01:33:36Z</time>
</trkpt>
<trkpt lat="51.1116275" lon="6.4174956">
<ele>0.0000000</ele>
<time>2008-10-09T01:33:52Z</time>
</trkpt>
<trkpt lat="51.1114382" lon="6.4178720">
<ele>0.0000000</ele>
<time>2008-10-09T01:34:04Z</time>
</trkpt>
<trkpt lat="51.1110127" lon="6.4182310">
<ele>0.0000000</ele>
<time>2008-10-09T01:34:23Z</time>
</trkpt>
<trkpt lat="51.1104326" lon="6.4183464">
<ele>0.0000000</ele>
<time>2008-10-09T01:34:46Z</time>
</trkpt>
<trkpt lat="51.1097364" lon="6.4185159">
<ele>0.0000000</ele>
<time>2008-10-09T01:35:15Z</time>
</trkpt>
<trkpt lat="51.1093323" lon="6.4182921">
<ele>0.0000000</ele>
<time>2008-10-09T01:35:32Z</time>
</trkpt>
<trkpt lat="51.1089043" lon="6.4181809">
<ele>0.0000000</ele>
<time>2008-10-09T01:35:49Z</time>
</trkpt>
<trkpt lat="51.1080965" lon="6.4183320">
<ele>0.0000000</ele>
<time>2008-10-09T01:36:22Z</time>
</trkpt>
<trkpt lat="51.1075521" lon="6.4182750">
<ele>0.0000000</ele>
<time>2008-10-09T01:36:43Z</time>
</trkpt>
<trkpt lat="51.1071151" lon="6.4182379">
<ele>0.0000000</ele>
<time>2008-10-09T01:37:01Z</time>
</trkpt>
<trkpt lat="51.1066899" lon="6.4182394">
<ele>0.0000000</ele>
<time>2008-10-09T01:37:18Z</time>
</trkpt>
<trkpt lat="51.1061934" lon="6.4184654">
<ele>0.0000000</ele>
<time>2008-10-09T01:37:39Z</time>
</trkpt>
<trkpt lat="51.1055791" lon="6.4188981">
<ele>0.0000000</ele>
<time>2008-10-09T01:38:06Z</time>
</trkpt>
<trkpt lat="51.1050380" lon="6.4188749">
<ele>0.0000000</ele>
<time>2008-10-09T01:38:27Z</time>
</trkpt>
<trkpt lat="51.1044366" lon="6.4187062">
<ele>0.0000000</ele>
<time>2008-10-09T01:38:52Z</time>
</trkpt>
<trkpt lat="51.1039531" lon="6.4184436">
<ele>0.0000000</ele>
<time>2008-10-09T01:39:12Z</time>
</trkpt>
<trkpt lat="51.1030767" lon="6.4178773">
<ele>0.0000000</ele>
<time>2008-10-09T01:39:50Z</time>
</trkpt>
<trkpt lat="51.1022549" lon="6.4172758">
<ele>0.0000000</ele>
<time>2008-10-09T01:40:26Z</time>
</trkpt>
<trkpt lat="51.1018092" lon="6.4169023">
<ele>0.0000000</ele>
<time>2008-10-09T01:40:46Z</time>
</trkpt>
<trkpt lat="51.1011518" lon="6.4162876">
<ele>0.0000000</ele>
<time>2008-10-09T01:41:17Z</time>
</trkpt>
<trkpt lat="51.1008145" lon="6.4157278">
<ele>0.0000000</ele>
<time>2008-10-09T01:41:36Z</time>
</trkpt>
<trkpt lat="51.1004293" lon="6.4152040">
<ele>0.0000000</ele>
<time>2008-10-09T01:41:57Z</time>
</trkpt>
<trkpt lat="51.0999011" lon="6.4147934">
<ele>0.0000000</ele>
<time>2008-10-09T01:42:20Z</time>
</trkpt>
<trkpt lat="51.0994198" lon="6.4143834">
<ele>0.0000000</ele>
<time>2008-10-09T01:42:42Z</time>
</trkpt>
<trkpt lat="51.0989155" lon="6.4140313">
<ele>0.0000000</ele>
<time>2008-10-09T01:43:04Z</time>
</trkpt>
<trkpt lat="51.0981317" lon="6.4135885">
<ele>0.0000000</ele>
<time>2008-10-09T01:43:37Z</time>
</trkpt>
<trkpt lat="51.0977940" lon="6.4134435">
<ele>0.0000000</ele>
<time>2008-10-09T01:43:51Z</time>
</trkpt>
<trkpt lat="51.0967952" lon="6.4135451">
<ele>0.0000000</ele>
<time>2008-10-09T01:44:31Z</time>
</trkpt>
<trkpt lat="51.0957497" lon="6.4134752">
<ele>0.0000000</ele>
<time>2008-10-09T01:45:13Z</time>
</trkpt>
<trkpt lat="51.0950268" lon="6.4134379">
<ele>0.0000000</ele>
<time>2008-10-09T01:45:42Z</time>
</trkpt>
<trkpt lat="51.0945706" lon="6.4133444">
<ele>0.0000000</ele>
<time>2008-10-09T01:46:01Z</time>
</trkpt>
<trkpt lat="51.0937789" lon="6.4134031">
<ele>0.0000000</ele>
<time>2008-10-09T01:46:32Z</time>
</trkpt>
<trkpt lat="51.0931147" lon="6.4133892">
<ele>0.0000000</ele>
<time>2008-10-09T01:46:59Z</time>
</trkpt>
<trkpt lat="51.0926031" lon="6.4135177">
<ele>0.0000000</ele>
<time>2008-10-09T01:47:20Z</time>
</trkpt>
<trkpt lat="51.0922189" lon="6.4137386">
<ele>0.0000000</ele>
<time>2008-10-09T01:47:36Z</time>
</trkpt>
<trkpt lat="51.0915791" lon="6.4142956">
<ele>0.0000000</ele>
<time>2008-10-09T01:48:05Z</time>
</trkpt>
<trkpt lat="51.0911163" lon="6.4147805">
<ele>0.0000000</ele>
<time>2008-10-09T01:48:27Z</time>
</trkpt>
<trkpt lat="51.0909898" lon="6.4151516">
<ele>0.0000000</ele>
<time>2008-10-09T01:48:38Z</time>
</trkpt>
<trkpt lat="51.0910139" lon="6.4156695">
<ele>0.0000000</ele>
<time>2008-10-09T01:48:51Z</time>
</trkpt>
<trkpt lat="51.0910379" lon="6.4165382">
<ele>0.0000000</ele>
<time>2008-10-09T01:49:13Z</time>
</trkpt>
<trkpt lat="51.0911168" lon="6.4175190">
<ele>0.0000000</ele>
<time>2008-10-09T01:49:38Z</time>
</trkpt>
<trkpt lat="51.0913989" lon="6.4181813">
<ele>0.0000000</ele>
<time>2008-10-09T01:49:58Z</time>
</trkpt>
<trkpt lat="51.0917727" lon="6.4187477">
<ele>0.0000000</ele>
<time>2008-10-09T01:50:19Z</time>
</trkpt>
<trkpt lat="51.0924097" lon="6.4189268">
<ele>0.0000000</ele>
<time>2008-10-09T01:50:45Z</time>
</trkpt>
<trkpt lat="51.0927793" lon="6.4192738">
<ele>0.0000000</ele>
<time>2008-10-09T01:51:02Z</time>
</trkpt>
<trkpt lat="51.0929526" lon="6.4196423">
<ele>0.0000000</ele>
<time>2008-10-09T01:51:13Z</time>
</trkpt>
<trkpt lat="51.0930222" lon="6.4201953">
<ele>0.0000000</ele>
<time>2008-10-09T01:51:27Z</time>
</trkpt>
<trkpt lat="51.0929763" lon="6.4210796">
<ele>0.0000000</ele>
<time>2008-10-09T01:51:50Z</time>
</trkpt>
<trkpt lat="51.0929648" lon="6.4220861">
<ele>0.0000000</ele>
<time>2008-10-09T01:52:15Z</time>
</trkpt>
<trkpt lat="51.0929302" lon="6.4223601">
<ele>0.0000000</ele>
<time>2008-10-09T01:52:22Z</time>
</trkpt>
<trkpt lat="51.0927457" lon="6.4225575">
<ele>0.0000000</ele>
<time>2008-10-09T01:52:31Z</time>
</trkpt>
<trkpt lat="51.0928380" lon="6.4228318">
<ele>0.0000000</ele>
<time>2008-10-09T01:52:39Z</time>
</trkpt>
<trkpt lat="51.0929764" lon="6.4229983">
<ele>0.0000000</ele>
<time>2008-10-09T01:52:46Z</time>
</trkpt>
<trkpt lat="51.0931729" lon="6.4227304">
<ele>0.0000000</ele>
<time>2008-10-09T01:52:56Z</time>
</trkpt>
<trkpt lat="51.0935194" lon="6.4227132">
<ele>0.0000000</ele>
<time>2008-10-09T01:53:10Z</time>
</trkpt>
<trkpt lat="51.0939236" lon="6.4230806">
<ele>0.0000000</ele>
<time>2008-10-09T01:53:29Z</time>
</trkpt>
<trkpt lat="51.0941668" lon="6.4237082">
<ele>0.0000000</ele>
<time>2008-10-09T01:53:47Z</time>
</trkpt>
<trkpt lat="51.0941657" lon="6.4246383">
<ele>0.0000000</ele>
<time>2008-10-09T01:54:11Z</time>
</trkpt>
<trkpt lat="51.0942463" lon="6.4254735">
<ele>0.0000000</ele>
<time>2008-10-09T01:54:32Z</time>
</trkpt>
<trkpt lat="51.0943950" lon="6.4267602">
<ele>0.0000000</ele>
<time>2008-10-09T01:55:05Z</time>
</trkpt>
<trkpt lat="51.0946105" lon="6.4282816">
<ele>0.0000000</ele>
<time>2008-10-09T01:55:44Z</time>
</trkpt>
<trkpt lat="51.0950018" lon="6.4305520">
<ele>0.0000000</ele>
<time>2008-10-09T01:56:43Z</time>
</trkpt>
<trkpt lat="51.0953704" lon="6.4322185">
<ele>0.0000000</ele>
<time>2008-10-09T01:57:28Z</time>
</trkpt>
<trkpt lat="51.0956267" lon="6.4336899">
<ele>0.0000000</ele>
<time>2008-10-09T01:58:06Z</time>
</trkpt>
<trkpt lat="51.0959723" lon="6.4356278">
<ele>0.0000000</ele>
<time>2008-10-09T01:58:57Z</time>
</trkpt>
<trkpt lat="51.0963101" lon="6.4375194">
<ele>0.0000000</ele>
<time>2008-10-09T01:59:46Z</time>
</trkpt>
<trkpt lat="51.0965758" lon="6.4388044">
<ele>0.0000000</ele>
<time>2008-10-09T02:00:20Z</time>
</trkpt>
<trkpt lat="51.0968485" lon="6.4398399">
<ele>0.0000000</ele>
<time>2008-10-09T02:00:48Z</time>
</trkpt>
<trkpt lat="51.0972854" lon="6.4410055">
<ele>0.0000000</ele>
<time>2008-10-09T02:01:22Z</time>
</trkpt>
<trkpt lat="51.0975061" lon="6.4421812">
<ele>0.0000000</ele>
<time>2008-10-09T02:01:53Z</time>
</trkpt>
<trkpt lat="51.0976222" lon="6.4430990">
<ele>0.0000000</ele>
<time>2008-10-09T02:02:17Z</time>
</trkpt>
<trkpt lat="51.0977037" lon="6.4441859">
<ele>0.0000000</ele>
<time>2008-10-09T02:02:44Z</time>
</trkpt>
<trkpt lat="51.0978781" lon="6.4455669">
<ele>0.0000000</ele>
<time>2008-10-09T02:03:20Z</time>
</trkpt>
<trkpt lat="51.0980042" lon="6.4466884">
<ele>0.0000000</ele>
<time>2008-10-09T02:03:48Z</time>
</trkpt>
<trkpt lat="51.0983148" lon="6.4480530">
<ele>0.0000000</ele>
<time>2008-10-09T02:04:25Z</time>
</trkpt>
<trkpt lat="51.0987667" lon="6.4490473">
<ele>0.0000000</ele>
<time>2008-10-09T02:04:56Z</time>
</trkpt>
<trkpt lat="51.0991600" lon="6.4497197">
<ele>0.0000000</ele>
<time>2008-10-09T02:05:19Z</time>
</trkpt>
<trkpt lat="51.0995399" lon="6.4503373">
<ele>0.0000000</ele>
<time>2008-10-09T02:05:40Z</time>
</trkpt>
<trkpt lat="51.0998715" lon="6.4512227">
<ele>0.0000000</ele>
<time>2008-10-09T02:06:06Z</time>
</trkpt>
<trkpt lat="51.1000659" lon="6.4523153">
<ele>0.0000000</ele>
<time>2008-10-09T02:06:35Z</time>
</trkpt>
<trkpt lat="51.1003164" lon="6.4531642">
<ele>0.0000000</ele>
<time>2008-10-09T02:06:59Z</time>
</trkpt>
<trkpt lat="51.1005556" lon="6.4543099">
<ele>0.0000000</ele>
<time>2008-10-09T02:07:29Z</time>
</trkpt>
<trkpt lat="51.1006015" lon="6.4548389">
<ele>0.0000000</ele>
<time>2008-10-09T02:07:42Z</time>
</trkpt>
<trkpt lat="51.1005906" lon="6.4558430">
<ele>0.0000000</ele>
<time>2008-10-09T02:08:08Z</time>
</trkpt>
<trkpt lat="51.1007404" lon="6.4565746">
<ele>0.0000000</ele>
<time>2008-10-09T02:08:27Z</time>
</trkpt>
<trkpt lat="51.1010253" lon="6.4573185">
<ele>0.0000000</ele>
<time>2008-10-09T02:08:49Z</time>
</trkpt>
<trkpt lat="51.1014601" lon="6.4579928">
<ele>0.0000000</ele>
<time>2008-10-09T02:09:13Z</time>
</trkpt>
<trkpt lat="51.1020545" lon="6.4584855">
<ele>0.0000000</ele>
<time>2008-10-09T02:09:40Z</time>
</trkpt>
<trkpt lat="51.1022822" lon="6.4592317">
<ele>0.0000000</ele>
<time>2008-10-09T02:10:01Z</time>
</trkpt>
<trkpt lat="51.1026684" lon="6.4597941">
<ele>0.0000000</ele>
<time>2008-10-09T02:10:22Z</time>
</trkpt>
<trkpt lat="51.1030992" lon="6.4604815">
<ele>0.0000000</ele>
<time>2008-10-09T02:10:46Z</time>
</trkpt>
<trkpt lat="51.1037600" lon="6.4611166">
<ele>0.0000000</ele>
<time>2008-10-09T02:11:17Z</time>
</trkpt>
<trkpt lat="51.1040444" lon="6.4615152">
<ele>0.0000000</ele>
<time>2008-10-09T02:11:32Z</time>
</trkpt>
<trkpt lat="51.1041465" lon="6.4619318">
<ele>0.0000000</ele>
<time>2008-10-09T02:11:43Z</time>
</trkpt>
<trkpt lat="51.1041890" lon="6.4627247">
<ele>0.0000000</ele>
<time>2008-10-09T02:12:03Z</time>
</trkpt>
<trkpt lat="51.1044157" lon="6.4634840">
<ele>0.0000000</ele>
<time>2008-10-09T02:12:25Z</time>
</trkpt>
<trkpt lat="51.1046640" lon="6.4638976">
<ele>0.0000000</ele>
<time>2008-10-09T02:12:39Z</time>
</trkpt>
<trkpt lat="51.1047034" lon="6.4645764">
<ele>0.0000000</ele>
<time>2008-10-09T02:12:56Z</time>
</trkpt>
<trkpt lat="51.1044082" lon="6.4657395">
<ele>0.0000000</ele>
<time>2008-10-09T02:13:28Z</time>
</trkpt>
<trkpt lat="51.1042030" lon="6.4664121">
<ele>0.0000000</ele>
<time>2008-10-09T02:13:46Z</time>
</trkpt>
<trkpt lat="51.1040415" lon="6.4674694">
<ele>0.0000000</ele>
<time>2008-10-09T02:14:14Z</time>
</trkpt>
<trkpt lat="51.1038378" lon="6.4683592">
<ele>0.0000000</ele>
<time>2008-10-09T02:14:38Z</time>
</trkpt>
<trkpt lat="51.1037150" lon="6.4695239">
<ele>0.0000000</ele>
<time>2008-10-09T02:15:07Z</time>
</trkpt>
<trkpt lat="51.1035664" lon="6.4702351">
<ele>0.0000000</ele>
<time>2008-10-09T02:15:26Z</time>
</trkpt>
<trkpt lat="51.1035545" lon="6.4712200">
<ele>0.0000000</ele>
<time>2008-10-09T02:15:51Z</time>
</trkpt>
<trkpt lat="51.1035801" lon="6.4718065">
<ele>0.0000000</ele>
<time>2008-10-09T02:16:06Z</time>
</trkpt>
<trkpt lat="51.1039456" lon="6.4724625">
<ele>0.0000000</ele>
<time>2008-10-09T02:16:28Z</time>
</trkpt>
<trkpt lat="51.1046314" lon="6.4732455">
<ele>0.0000000</ele>
<time>2008-10-09T02:17:01Z</time>
</trkpt>
<trkpt lat="51.1053716" lon="6.4742988">
<ele>0.0000000</ele>
<time>2008-10-09T02:17:41Z</time>
</trkpt>
<trkpt lat="51.1059683" lon="6.4752855">
<ele>0.0000000</ele>
<time>2008-10-09T02:18:16Z</time>
</trkpt>
<trkpt lat="51.1066699" lon="6.4762019">
<ele>0.0000000</ele>
<time>2008-10-09T02:18:52Z</time>
</trkpt>
<trkpt lat="51.1070092" lon="6.4771858">
<ele>0.0000000</ele>
<time>2008-10-09T02:19:20Z</time>
</trkpt>
<trkpt lat="51.1074310" lon="6.4783663">
<ele>0.0000000</ele>
<time>2008-10-09T02:19:54Z</time>
</trkpt>
<trkpt lat="51.1080267" lon="6.4794422">
<ele>0.0000000</ele>
<time>2008-10-09T02:20:30Z</time>
</trkpt>
<trkpt lat="51.1086800" lon="6.4805880">
<ele>0.0000000</ele>
<time>2008-10-09T02:21:09Z</time>
</trkpt>
<trkpt lat="51.1093831" lon="6.4816085">
<ele>0.0000000</ele>
<time>2008-10-09T02:21:47Z</time>
</trkpt>
<trkpt lat="51.1097649" lon="6.4824360">
<ele>0.0000000</ele>
<time>2008-10-09T02:22:13Z</time>
</trkpt>
<trkpt lat="51.1103699" lon="6.4835056">
<ele>0.0000000</ele>
<time>2008-10-09T02:22:49Z</time>
</trkpt>
<trkpt lat="51.1108772" lon="6.4843537">
<ele>0.0000000</ele>
<time>2008-10-09T02:23:19Z</time>
</trkpt>
<trkpt lat="51.1111888" lon="6.4848880">
<ele>0.0000000</ele>
<time>2008-10-09T02:23:37Z</time>
</trkpt>
<trkpt lat="51.1116631" lon="6.4854967">
<ele>0.0000000</ele>
<time>2008-10-09T02:24:01Z</time>
</trkpt>
<trkpt lat="51.1119649" lon="6.4859587">
<ele>0.0000000</ele>
<time>2008-10-09T02:24:18Z</time>
</trkpt>
<trkpt lat="51.1121629" lon="6.4862551">
<ele>0.0000000</ele>
<time>2008-10-09T02:24:29Z</time>
</trkpt>
<trkpt lat="51.1121752" lon="6.4866804">
<ele>0.0000000</ele>
<time>2008-10-09T02:24:40Z</time>
</trkpt>
<trkpt lat="51.1121786" lon="6.4870168">
<ele>0.0000000</ele>
<time>2008-10-09T02:24:48Z</time>
</trkpt>
<trkpt lat="51.1124286" lon="6.4874501">
<ele>0.0000000</ele>
<time>2008-10-09T02:25:03Z</time>
</trkpt>
<trkpt lat="51.1127087" lon="6.4879887">
<ele>0.0000000</ele>
<time>2008-10-09T02:25:21Z</time>
</trkpt>
<trkpt lat="51.1133251" lon="6.4888195">
<ele>0.0000000</ele>
<time>2008-10-09T02:25:53Z</time>
</trkpt>
<trkpt lat="51.1138598" lon="6.4898397">
<ele>0.0000000</ele>
<time>2008-10-09T02:26:26Z</time>
</trkpt>
<trkpt lat="51.1142525" lon="6.4908669">
<ele>0.0000000</ele>
<time>2008-10-09T02:26:57Z</time>
</trkpt>
<trkpt lat="51.1145556" lon="6.4917788">
<ele>0.0000000</ele>
<time>2008-10-09T02:27:22Z</time>
</trkpt>
<trkpt lat="51.1149369" lon="6.4941998">
<ele>0.0000000</ele>
<time>2008-10-09T02:28:25Z</time>
</trkpt>
<trkpt lat="51.1153806" lon="6.4959879">
<ele>0.0000000</ele>
<time>2008-10-09T02:29:14Z</time>
</trkpt>
<trkpt lat="51.1155682" lon="6.4975618">
<ele>0.0000000</ele>
<time>2008-10-09T02:29:54Z</time>
</trkpt>
<trkpt lat="51.1156384" lon="6.4981970">
<ele>0.0000000</ele>
<time>2008-10-09T02:30:10Z</time>
</trkpt>
<trkpt lat="51.1158494" lon="6.4988138">
<ele>0.0000000</ele>
<time>2008-10-09T02:30:28Z</time>
</trkpt>
<trkpt lat="51.1159907" lon="6.4993967">
<ele>0.0000000</ele>
<time>2008-10-09T02:30:43Z</time>
</trkpt>
<trkpt lat="51.1155978" lon="6.5005656">
<ele>0.0000000</ele>
<time>2008-10-09T02:31:17Z</time>
</trkpt>
<trkpt lat="51.1158467" lon="6.5006952">
<ele>0.0000000</ele>
<time>2008-10-09T02:31:27Z</time>
</trkpt>
<trkpt lat="51.1161073" lon="6.5011480">
<ele>0.0000000</ele>
<time>2008-10-09T02:31:43Z</time>
</trkpt>
<trkpt lat="51.1164529" lon="6.5016986">
<ele>0.0000000</ele>
<time>2008-10-09T02:32:02Z</time>
</trkpt>
<trkpt lat="51.1167987" lon="6.5020196">
<ele>0.0000000</ele>
<time>2008-10-09T02:32:18Z</time>
</trkpt>
<trkpt lat="51.1172174" lon="6.5023793">
<ele>0.0000000</ele>
<time>2008-10-09T02:32:37Z</time>
</trkpt>
<trkpt lat="51.1174934" lon="6.5027234">
<ele>0.0000000</ele>
<time>2008-10-09T02:32:51Z</time>
</trkpt>
<trkpt lat="51.1175536" lon="6.5030497">
<ele>0.0000000</ele>
<time>2008-10-09T02:33:00Z</time>
</trkpt>
<trkpt lat="51.1181420" lon="6.5042362">
<ele>0.0000000</ele>
<time>2008-10-09T02:33:38Z</time>
</trkpt>
<trkpt lat="51.1189977" lon="6.5057721">
<ele>0.0000000</ele>
<time>2008-10-09T02:34:29Z</time>
</trkpt>
<trkpt lat="51.1197806" lon="6.5069249">
<ele>0.0000000</ele>
<time>2008-10-09T02:35:12Z</time>
</trkpt>
<trkpt lat="51.1202135" lon="6.5075198">
<ele>0.0000000</ele>
<time>2008-10-09T02:35:35Z</time>
</trkpt>
<trkpt lat="51.1205130" lon="6.5080563">
<ele>0.0000000</ele>
<time>2008-10-09T02:35:53Z</time>
</trkpt>
<trkpt lat="51.1207646" lon="6.5085764">
<ele>0.0000000</ele>
<time>2008-10-09T02:36:09Z</time>
</trkpt>
<trkpt lat="51.1210061" lon="6.5088059">
<ele>0.0000000</ele>
<time>2008-10-09T02:36:21Z</time>
</trkpt>
<trkpt lat="51.1212842" lon="6.5087847">
<ele>0.0000000</ele>
<time>2008-10-09T02:36:32Z</time>
</trkpt>
<trkpt lat="51.1218166" lon="6.5086048">
<ele>0.0000000</ele>
<time>2008-10-09T02:36:54Z</time>
</trkpt>
<trkpt lat="51.1218760" lon="6.5089705">
<ele>0.0000000</ele>
<time>2008-10-09T02:37:03Z</time>
</trkpt>
<trkpt lat="51.1219827" lon="6.5096839">
<ele>0.0000000</ele>
<time>2008-10-09T02:37:22Z</time>
</trkpt>
<trkpt lat="51.1219454" lon="6.5100913">
<ele>0.0000000</ele>
<time>2008-10-09T02:37:32Z</time>
</trkpt>
<trkpt lat="51.1218947" lon="6.5107162">
<ele>0.0000000</ele>
<time>2008-10-09T02:37:48Z</time>
</trkpt>
<trkpt lat="51.1218592" lon="6.5113070">
<ele>0.0000000</ele>
<time>2008-10-09T02:38:03Z</time>
</trkpt>
<trkpt lat="51.1219676" lon="6.5119587">
<ele>0.0000000</ele>
<time>2008-10-09T02:38:20Z</time>
</trkpt>
<trkpt lat="51.1227139" lon="6.5142461">
<ele>0.0000000</ele>
<time>2008-10-09T02:39:24Z</time>
</trkpt>
<trkpt lat="51.1233277" lon="6.5163178">
<ele>0.0000000</ele>
<time>2008-10-09T02:40:22Z</time>
</trkpt>
<trkpt lat="51.1236753" lon="6.5176109">
<ele>0.0000000</ele>
<time>2008-10-09T02:40:57Z</time>
</trkpt>
<trkpt lat="51.1237351" lon="6.5182054">
<ele>0.0000000</ele>
<time>2008-10-09T02:41:12Z</time>
</trkpt>
<trkpt lat="51.1236265" lon="6.5182633">
<ele>0.0000000</ele>
<time>2008-10-09T02:41:17Z</time>
</trkpt>
<trkpt lat="51.1231093" lon="6.5187215">
<ele>0.0000000</ele>
<time>2008-10-09T02:41:41Z</time>
</trkpt>
<trkpt lat="51.1232055" lon="6.5191160">
<ele>0.0000000</ele>
<time>2008-10-09T02:41:51Z</time>
</trkpt>
<trkpt lat="51.1232143" lon="6.5201364">
<ele>0.0000000</ele>
<time>2008-10-09T02:42:17Z</time>
</trkpt>
<trkpt lat="51.1231321" lon="6.5213234">
<ele>0.0000000</ele>
<time>2008-10-09T02:42:47Z</time>
</trkpt>
<trkpt lat="51.1230316" lon="6.5228992">
<ele>0.0000000</ele>
<time>2008-10-09T02:43:27Z</time>
</trkpt>
<trkpt lat="51.1229861" lon="6.5235200">
<ele>0.0000000</ele>
<time>2008-10-09T02:43:42Z</time>
</trkpt>
<trkpt lat="51.1231303" lon="6.5242992">
<ele>0.0000000</ele>
<time>2008-10-09T02:44:03Z</time>
</trkpt>
<trkpt lat="51.1233017" lon="6.5253059">
<ele>0.0000000</ele>
<time>2008-10-09T02:44:29Z</time>
</trkpt>
<trkpt lat="51.1233925" lon="6.5258829">
<ele>0.0000000</ele>
<time>2008-10-09T02:44:44Z</time>
</trkpt>
<trkpt lat="51.1233835" lon="6.5262879">
<ele>0.0000000</ele>
<time>2008-10-09T02:44:54Z</time>
</trkpt>
<trkpt lat="51.1236108" lon="6.5270422">
<ele>0.0000000</ele>
<time>2008-10-09T02:45:15Z</time>
</trkpt>
<trkpt lat="51.1237560" lon="6.5274917">
<ele>0.0000000</ele>
<time>2008-10-09T02:45:28Z</time>
</trkpt>
<trkpt lat="51.1240748" lon="6.5278414">
<ele>0.0000000</ele>
<time>2008-10-09T02:45:43Z</time>
</trkpt>
<trkpt lat="51.1242922" lon="6.5281156">
<ele>0.0000000</ele>
<time>2008-10-09T02:45:55Z</time>
</trkpt>
<trkpt lat="51.1243538" lon="6.5287203">
<ele>0.0000000</ele>
<time>2008-10-09T02:46:10Z</time>
</trkpt>
<trkpt lat="51.1243824" lon="6.5303639">
<ele>0.0000000</ele>
<time>2008-10-09T02:46:51Z</time>
</trkpt>
<trkpt lat="51.1246007" lon="6.5301168">
<ele>0.0000000</ele>
<time>2008-10-09T02:47:02Z</time>
</trkpt>
<trkpt lat="51.1255598" lon="6.5288715">
<ele>0.0000000</ele>
<time>2008-10-09T02:47:51Z</time>
</trkpt>
<trkpt lat="51.1265021" lon="6.5279921">
<ele>0.0000000</ele>
<time>2008-10-09T02:48:35Z</time>
</trkpt>
<trkpt lat="51.1277996" lon="6.5269211">
<ele>0.0000000</ele>
<time>2008-10-09T02:49:34Z</time>
</trkpt>
<trkpt lat="51.1291137" lon="6.5258905">
<ele>0.0000000</ele>
<time>2008-10-09T02:50:32Z</time>
</trkpt>
<trkpt lat="51.1300571" lon="6.5250744">
<ele>0.0000000</ele>
<time>2008-10-09T02:51:15Z</time>
</trkpt>
<trkpt lat="51.1304702" lon="6.5247766">
<ele>0.0000000</ele>
<time>2008-10-09T02:51:33Z</time>
</trkpt>
<trkpt lat="51.1306497" lon="6.5248198">
<ele>0.0000000</ele>
<time>2008-10-09T02:51:41Z</time>
</trkpt>
<trkpt lat="51.1307034" lon="6.5251203">
<ele>0.0000000</ele>
<time>2008-10-09T02:51:49Z</time>
</trkpt>
<trkpt lat="51.1309808" lon="6.5266802">
<ele>0.0000000</ele>
<time>2008-10-09T02:52:29Z</time>
</trkpt>
<trkpt lat="51.1313762" lon="6.5279963">
<ele>0.0000000</ele>
<time>2008-10-09T02:53:06Z</time>
</trkpt>
<trkpt lat="51.1317517" lon="6.5286844">
<ele>0.0000000</ele>
<time>2008-10-09T02:53:29Z</time>
</trkpt>
<trkpt lat="51.1321441" lon="6.5291144">
<ele>0.0000000</ele>
<time>2008-10-09T02:53:48Z</time>
</trkpt>
<trkpt lat="51.1326282" lon="6.5296011">
<ele>0.0000000</ele>
<time>2008-10-09T02:54:11Z</time>
</trkpt>
<trkpt lat="51.1329998" lon="6.5301174">
<ele>0.0000000</ele>
<time>2008-10-09T02:54:31Z</time>
</trkpt>
<trkpt lat="51.1334895" lon="6.5311370">
<ele>0.0000000</ele>
<time>2008-10-09T02:55:03Z</time>
</trkpt>
<trkpt lat="51.1342973" lon="6.5327053">
<ele>0.0000000</ele>
<time>2008-10-09T02:55:54Z</time>
</trkpt>
<trkpt lat="51.1347193" lon="6.5335073">
<ele>0.0000000</ele>
<time>2008-10-09T02:56:20Z</time>
</trkpt>
<trkpt lat="51.1352082" lon="6.5347341">
<ele>0.0000000</ele>
<time>2008-10-09T02:56:57Z</time>
</trkpt>
<trkpt lat="51.1359154" lon="6.5365831">
<ele>0.0000000</ele>
<time>2008-10-09T02:57:51Z</time>
</trkpt>
<trkpt lat="51.1363554" lon="6.5379146">
<ele>0.0000000</ele>
<time>2008-10-09T02:58:29Z</time>
</trkpt>
<trkpt lat="51.1368585" lon="6.5387934">
<ele>0.0000000</ele>
<time>2008-10-09T02:58:59Z</time>
</trkpt>
<trkpt lat="51.1371293" lon="6.5391872">
<ele>0.0000000</ele>
<time>2008-10-09T02:59:13Z</time>
</trkpt>
<trkpt lat="51.1381622" lon="6.5409888">
<ele>0.0000000</ele>
<time>2008-10-09T03:00:15Z</time>
</trkpt>
<trkpt lat="51.1389665" lon="6.5422298">
<ele>0.0000000</ele>
<time>2008-10-09T03:00:59Z</time>
</trkpt>
<trkpt lat="51.1394371" lon="6.5431264">
<ele>0.0000000</ele>
<time>2008-10-09T03:01:29Z</time>
</trkpt>
<trkpt lat="51.1397447" lon="6.5441819">
<ele>0.0000000</ele>
<time>2008-10-09T03:01:58Z</time>
</trkpt>
<trkpt lat="51.1398991" lon="6.5446894">
<ele>0.0000000</ele>
<time>2008-10-09T03:02:12Z</time>
</trkpt>
<trkpt lat="51.1402592" lon="6.5465078">
<ele>0.0000000</ele>
<time>2008-10-09T03:03:00Z</time>
</trkpt>
<trkpt lat="51.1406242" lon="6.5477330">
<ele>0.0000000</ele>
<time>2008-10-09T03:03:34Z</time>
</trkpt>
<trkpt lat="51.1410360" lon="6.5488175">
<ele>0.0000000</ele>
<time>2008-10-09T03:04:06Z</time>
</trkpt>
<trkpt lat="51.1415642" lon="6.5497185">
<ele>0.0000000</ele>
<time>2008-10-09T03:04:37Z</time>
</trkpt>
<trkpt lat="51.1424095" lon="6.5510081">
<ele>0.0000000</ele>
<time>2008-10-09T03:05:24Z</time>
</trkpt>
<trkpt lat="51.1432614" lon="6.5523166">
<ele>0.0000000</ele>
<time>2008-10-09T03:06:11Z</time>
</trkpt>
<trkpt lat="51.1443657" lon="6.5535296">
<ele>0.0000000</ele>
<time>2008-10-09T03:07:05Z</time>
</trkpt>
<trkpt lat="51.1452355" lon="6.5544765">
<ele>0.0000000</ele>
<time>2008-10-09T03:07:47Z</time>
</trkpt>
<trkpt lat="51.1457775" lon="6.5551101">
<ele>0.0000000</ele>
<time>2008-10-09T03:08:14Z</time>
</trkpt>
<trkpt lat="51.1463933" lon="6.5532774">
<ele>0.0000000</ele>
<time>2008-10-09T03:09:06Z</time>
</trkpt>
<trkpt lat="51.1473280" lon="6.5498988">
<ele>0.0000000</ele>
<time>2008-10-09T03:10:39Z</time>
</trkpt>
<trkpt lat="51.1477035" lon="6.5489771">
<ele>0.0000000</ele>
<time>2008-10-09T03:11:06Z</time>
</trkpt>
<trkpt lat="51.1482000" lon="6.5482166">
<ele>0.0000000</ele>
<time>2008-10-09T03:11:34Z</time>
</trkpt>
<trkpt lat="51.1488695" lon="6.5471063">
<ele>0.0000000</ele>
<time>2008-10-09T03:12:13Z</time>
</trkpt>
<trkpt lat="51.1496444" lon="6.5456889">
<ele>0.0000000</ele>
<time>2008-10-09T03:13:00Z</time>
</trkpt>
<trkpt lat="51.1501166" lon="6.5445509">
<ele>0.0000000</ele>
<time>2008-10-09T03:13:34Z</time>
</trkpt>
<trkpt lat="51.1504662" lon="6.5429111">
<ele>0.0000000</ele>
<time>2008-10-09T03:14:18Z</time>
</trkpt>
<trkpt lat="51.1509409" lon="6.5415457">
<ele>0.0000000</ele>
<time>2008-10-09T03:14:57Z</time>
</trkpt>
<trkpt lat="51.1517064" lon="6.5404383">
<ele>0.0000000</ele>
<time>2008-10-09T03:15:38Z</time>
</trkpt>
<trkpt lat="51.1527269" lon="6.5399127">
<ele>0.0000000</ele>
<time>2008-10-09T03:16:21Z</time>
</trkpt>
<trkpt lat="51.1536090" lon="6.5395290">
<ele>0.0000000</ele>
<time>2008-10-09T03:16:58Z</time>
</trkpt>
<trkpt lat="51.1548396" lon="6.5390082">
<ele>0.0000000</ele>
<time>2008-10-09T03:17:49Z</time>
</trkpt>
<trkpt lat="51.1562963" lon="6.5382000">
<ele>0.0000000</ele>
<time>2008-10-09T03:18:50Z</time>
</trkpt>
<trkpt lat="51.1578418" lon="6.5372711">
<ele>0.0000000</ele>
<time>2008-10-09T03:19:57Z</time>
</trkpt>
<trkpt lat="51.1600160" lon="6.5360560">
<ele>0.0000000</ele>
<time>2008-10-09T03:21:29Z</time>
</trkpt>
<trkpt lat="51.1606449" lon="6.5355770">
<ele>0.0000000</ele>
<time>2008-10-09T03:21:57Z</time>
</trkpt>
<trkpt lat="51.1623481" lon="6.5342427">
<ele>0.0000000</ele>
<time>2008-10-09T03:23:13Z</time>
</trkpt>
<trkpt lat="51.1639246" lon="6.5330667">
<ele>0.0000000</ele>
<time>2008-10-09T03:24:22Z</time>
</trkpt>
<trkpt lat="51.1641820" lon="6.5337690">
<ele>0.0000000</ele>
<time>2008-10-09T03:24:43Z</time>
</trkpt>
<trkpt lat="51.1646765" lon="6.5352936">
<ele>0.0000000</ele>
<time>2008-10-09T03:25:26Z</time>
</trkpt>
<trkpt lat="51.1650409" lon="6.5368204">
<ele>0.0000000</ele>
<time>2008-10-09T03:26:07Z</time>
</trkpt>
<trkpt lat="51.1653413" lon="6.5378299">
<ele>0.0000000</ele>
<time>2008-10-09T03:26:35Z</time>
</trkpt>
<trkpt lat="51.1657270" lon="6.5396068">
<ele>0.0000000</ele>
<time>2008-10-09T03:27:22Z</time>
</trkpt>
<trkpt lat="51.1659744" lon="6.5403360">
<ele>0.0000000</ele>
<time>2008-10-09T03:27:43Z</time>
</trkpt>
<trkpt lat="51.1673004" lon="6.5398565">
<ele>0.0000000</ele>
<time>2008-10-09T03:28:37Z</time>
</trkpt>
<trkpt lat="51.1679005" lon="6.5395826">
<ele>0.0000000</ele>
<time>2008-10-09T03:29:02Z</time>
</trkpt>
<trkpt lat="51.1684243" lon="6.5392605">
<ele>0.0000000</ele>
<time>2008-10-09T03:29:25Z</time>
</trkpt>
<trkpt lat="51.1689049" lon="6.5388334">
<ele>0.0000000</ele>
<time>2008-10-09T03:29:47Z</time>
</trkpt>
<trkpt lat="51.1690997" lon="6.5387155">
<ele>0.0000000</ele>
<time>2008-10-09T03:29:55Z</time>
</trkpt>
<trkpt lat="51.1696922" lon="6.5394562">
<ele>0.0000000</ele>
<time>2008-10-09T03:30:25Z</time>
</trkpt>
<trkpt lat="51.1702203" lon="6.5400805">
<ele>0.0000000</ele>
<time>2008-10-09T03:30:52Z</time>
</trkpt>
<trkpt lat="51.1707221" lon="6.5411101">
<ele>0.0000000</ele>
<time>2008-10-09T03:31:24Z</time>
</trkpt>
<trkpt lat="51.1711766" lon="6.5425483">
<ele>0.0000000</ele>
<time>2008-10-09T03:32:05Z</time>
</trkpt>
<trkpt lat="51.1716338" lon="6.5439237">
<ele>0.0000000</ele>
<time>2008-10-09T03:32:44Z</time>
</trkpt>
<trkpt lat="51.1719422" lon="6.5445684">
<ele>0.0000000</ele>
<time>2008-10-09T03:33:04Z</time>
</trkpt>
<trkpt lat="51.1725490" lon="6.5450482">
<ele>0.0000000</ele>
<time>2008-10-09T03:33:31Z</time>
</trkpt>
<trkpt lat="51.1737221" lon="6.5456714">
<ele>0.0000000</ele>
<time>2008-10-09T03:34:21Z</time>
</trkpt>
<trkpt lat="51.1742933" lon="6.5459562">
<ele>0.0000000</ele>
<time>2008-10-09T03:34:45Z</time>
</trkpt>
<trkpt lat="51.1754140" lon="6.5461075">
<ele>0.0000000</ele>
<time>2008-10-09T03:35:30Z</time>
</trkpt>
<trkpt lat="51.1766363" lon="6.5462144">
<ele>0.0000000</ele>
<time>2008-10-09T03:36:19Z</time>
</trkpt>
<trkpt lat="51.1775330" lon="6.5463347">
<ele>0.0000000</ele>
<time>2008-10-09T03:36:55Z</time>
</trkpt>
<trkpt lat="51.1781899" lon="6.5465889">
<ele>0.0000000</ele>
<time>2008-10-09T03:37:22Z</time>
</trkpt>
<trkpt lat="51.1787709" lon="6.5472920">
<ele>0.0000000</ele>
<time>2008-10-09T03:37:51Z</time>
</trkpt>
<trkpt lat="51.1790130" lon="6.5476025">
<ele>0.0000000</ele>
<time>2008-10-09T03:38:03Z</time>
</trkpt>
<trkpt lat="51.1793122" lon="6.5480810">
<ele>0.0000000</ele>
<time>2008-10-09T03:38:20Z</time>
</trkpt>
<trkpt lat="51.1803497" lon="6.5505051">
<ele>0.0000000</ele>
<time>2008-10-09T03:39:34Z</time>
</trkpt>
<trkpt lat="51.1813581" lon="6.5528043">
<ele>0.0000000</ele>
<time>2008-10-09T03:40:44Z</time>
</trkpt>
<trkpt lat="51.1820418" lon="6.5543905">
<ele>0.0000000</ele>
<time>2008-10-09T03:41:33Z</time>
</trkpt>
<trkpt lat="51.1826592" lon="6.5558270">
<ele>0.0000000</ele>
<time>2008-10-09T03:42:16Z</time>
</trkpt>
<trkpt lat="51.1828618" lon="6.5568835">
<ele>0.0000000</ele>
<time>2008-10-09T03:42:44Z</time>
</trkpt>
<trkpt lat="51.1830091" lon="6.5579107">
<ele>0.0000000</ele>
<time>2008-10-09T03:43:11Z</time>
</trkpt>
<trkpt lat="51.1832533" lon="6.5586977">
<ele>0.0000000</ele>
<time>2008-10-09T03:43:33Z</time>
</trkpt>
<trkpt lat="51.1836065" lon="6.5593255">
<ele>0.0000000</ele>
<time>2008-10-09T03:43:54Z</time>
</trkpt>
<trkpt lat="51.1840634" lon="6.5595663">
<ele>0.0000000</ele>
<time>2008-10-09T03:44:13Z</time>
</trkpt>
<trkpt lat="51.1849432" lon="6.5594799">
<ele>0.0000000</ele>
<time>2008-10-09T03:44:48Z</time>
</trkpt>
<trkpt lat="51.1859834" lon="6.5590924">
<ele>0.0000000</ele>
<time>2008-10-09T03:45:31Z</time>
</trkpt>
<trkpt lat="51.1868984" lon="6.5587205">
<ele>0.0000000</ele>
<time>2008-10-09T03:46:09Z</time>
</trkpt>
<trkpt lat="51.1876841" lon="6.5584838">
<ele>0.0000000</ele>
<time>2008-10-09T03:46:41Z</time>
</trkpt>
<trkpt lat="51.1885299" lon="6.5581398">
<ele>0.0000000</ele>
<time>2008-10-09T03:47:16Z</time>
</trkpt>
<trkpt lat="51.1894280" lon="6.5578527">
<ele>0.0000000</ele>
<time>2008-10-09T03:47:53Z</time>
</trkpt>
<trkpt lat="51.1900564" lon="6.5576446">
<ele>0.0000000</ele>
<time>2008-10-09T03:48:18Z</time>
</trkpt>
<trkpt lat="51.1900273" lon="6.5589022">
<ele>0.0000000</ele>
<time>2008-10-09T03:48:50Z</time>
</trkpt>
<trkpt lat="51.1900362" lon="6.5594579">
<ele>0.0000000</ele>
<time>2008-10-09T03:49:04Z</time>
</trkpt>
<trkpt lat="51.1903627" lon="6.5603706">
<ele>0.0000000</ele>
<time>2008-10-09T03:49:30Z</time>
</trkpt>
<trkpt lat="51.1908780" lon="6.5603262">
<ele>0.0000000</ele>
<time>2008-10-09T03:49:51Z</time>
</trkpt>
<trkpt lat="51.1919205" lon="6.5601776">
<ele>0.0000000</ele>
<time>2008-10-09T03:50:33Z</time>
</trkpt>
<trkpt lat="51.1927341" lon="6.5600307">
<ele>0.0000000</ele>
<time>2008-10-09T03:51:05Z</time>
</trkpt>
<trkpt lat="51.1938447" lon="6.5597359">
<ele>0.0000000</ele>
<time>2008-10-09T03:51:51Z</time>
</trkpt>
<trkpt lat="51.1950888" lon="6.5592310">
<ele>0.0000000</ele>
<time>2008-10-09T03:52:42Z</time>
</trkpt>
<trkpt lat="51.1957122" lon="6.5589296">
<ele>0.0000000</ele>
<time>2008-10-09T03:53:08Z</time>
</trkpt>
<trkpt lat="51.1964916" lon="6.5585440">
<ele>0.0000000</ele>
<time>2008-10-09T03:53:41Z</time>
</trkpt>
<trkpt lat="51.1972597" lon="6.5582290">
<ele>0.0000000</ele>
<time>2008-10-09T03:54:12Z</time>
</trkpt>
<trkpt lat="51.1980753" lon="6.5580253">
<ele>0.0000000</ele>
<time>2008-10-09T03:54:45Z</time>
</trkpt>
<trkpt lat="51.1989480" lon="6.5579783">
<ele>0.0000000</ele>
<time>2008-10-09T03:55:20Z</time>
</trkpt>
<trkpt lat="51.2005760" lon="6.5582848">
<ele>0.0000000</ele>
<time>2008-10-09T03:56:26Z</time>
</trkpt>
<trkpt lat="51.2018400" lon="6.5584833">
<ele>0.0000000</ele>
<time>2008-10-09T03:57:17Z</time>
</trkpt>
<trkpt lat="51.2028450" lon="6.5586204">
<ele>0.0000000</ele>
<time>2008-10-09T03:57:57Z</time>
</trkpt>
<trkpt lat="51.2039251" lon="6.5588477">
<ele>0.0000000</ele>
<time>2008-10-09T03:58:41Z</time>
</trkpt>
<trkpt lat="51.2049585" lon="6.5592224">
<ele>0.0000000</ele>
<time>2008-10-09T03:59:23Z</time>
</trkpt>
<trkpt lat="51.2053633" lon="6.5593419">
<ele>0.0000000</ele>
<time>2008-10-09T03:59:40Z</time>
</trkpt>
<trkpt lat="51.2055327" lon="6.5593873">
<ele>0.0000000</ele>
<time>2008-10-09T03:59:47Z</time>
</trkpt>
<trkpt lat="51.2058687" lon="6.5601412">
<ele>0.0000000</ele>
<time>2008-10-09T04:00:10Z</time>
</trkpt>
<trkpt lat="51.2060569" lon="6.5610859">
<ele>0.0000000</ele>
<time>2008-10-09T04:00:35Z</time>
</trkpt>
<trkpt lat="51.2062719" lon="6.5619867">
<ele>0.0000000</ele>
<time>2008-10-09T04:00:59Z</time>
</trkpt>
<trkpt lat="51.2066080" lon="6.5629319">
<ele>0.0000000</ele>
<time>2008-10-09T04:01:26Z</time>
</trkpt>
<trkpt lat="51.2068222" lon="6.5635160">
<ele>0.0000000</ele>
<time>2008-10-09T04:01:43Z</time>
</trkpt>
<trkpt lat="51.2072284" lon="6.5646145">
<ele>0.0000000</ele>
<time>2008-10-09T04:02:15Z</time>
</trkpt>
<trkpt lat="51.2073809" lon="6.5651433">
<ele>0.0000000</ele>
<time>2008-10-09T04:02:30Z</time>
</trkpt>
<trkpt lat="51.2077607" lon="6.5661935">
<ele>0.0000000</ele>
<time>2008-10-09T04:03:00Z</time>
</trkpt>
<trkpt lat="51.2081343" lon="6.5673003">
<ele>0.0000000</ele>
<time>2008-10-09T04:03:32Z</time>
</trkpt>
<trkpt lat="51.2085476" lon="6.5690768">
<ele>0.0000000</ele>
<time>2008-10-09T04:04:19Z</time>
</trkpt>
<trkpt lat="51.2088100" lon="6.5703693">
<ele>0.0000000</ele>
<time>2008-10-09T04:04:53Z</time>
</trkpt>
<trkpt lat="51.2089595" lon="6.5714801">
<ele>0.0000000</ele>
<time>2008-10-09T04:05:22Z</time>
</trkpt>
<trkpt lat="51.2090991" lon="6.5728556">
<ele>0.0000000</ele>
<time>2008-10-09T04:05:57Z</time>
</trkpt>
<trkpt lat="51.2097931" lon="6.5731267">
<ele>0.0000000</ele>
<time>2008-10-09T04:06:25Z</time>
</trkpt>
<trkpt lat="51.2106350" lon="6.5734691">
<ele>0.0000000</ele>
<time>2008-10-09T04:07:00Z</time>
</trkpt>
<trkpt lat="51.2112079" lon="6.5738924">
<ele>0.0000000</ele>
<time>2008-10-09T04:07:25Z</time>
</trkpt>
</trkseg>
</trk>
</gpx>
